DAL138 KMCO-EBBR
Flight info
| Callsign | DAL138 |
|---|---|
| Flight time | 8h 45m |
| Altitude | 37000 |
| Route | FATHE4 VIYAP Q87 JROSS Q135 RAPZZ DCT PRONI DCT PUNGO DCT PHITZ DCT DWSEN DCT KW54A DCT PREPI DCT KB63C DCT MONTK DCT VITOL DCT NANSO/M084F390 N55B RAFIN DCT 4550N DCT 4740N DCT 4730N DCT 4720N DCT 4715N DCT SEPAL UN470 LAPEX/N0473F390 DCT BADUR/N0477F400 DCT FEJAC UN585 UPALO/N0479F410 UN491 LGL/N0478F400 UT176 ELCOB UN873 PODEM/N0480F340 UN873 BAZOS DCT BELDI DCT VEKIN Z173 ARVOL |
| Aircraft | A359/H-SDE2E3GHIJ3J4J5LM1ORWXY/LB1D1 |
Departure
| Time | 2026-04-25 14:02 |
|---|---|
| Airport | Orlando International Airport (KMCO) |
Arrival
| Time | 2026-04-25 22:48 |
|---|---|
| Airport | Brussels Airport (EBBR) |
| Time | Latitude | Longitude | Altitude | Speed | Heading |
|---|---|---|---|---|---|
| 2026-04-25 12:16 | 28.42836 | -81.29983 | 101 ft | 0 kts | 286° |
| 2026-04-25 13:43 | 28.42833 | -81.29969 | 101 ft | 4 kts | 286° |
| 2026-04-25 13:44 | 28.42825 | -81.29941 | 101 ft | 2 kts | 286° |
| 2026-04-25 13:44 | 28.42819 | -81.29917 | 98 ft | 4 kts | 292° |
| 2026-04-25 13:44 | 28.42806 | -81.29891 | 100 ft | 4 kts | 321° |
| 2026-04-25 13:44 | 28.42786 | -81.29882 | 100 ft | 4 kts | 360° |
| 2026-04-25 13:45 | 28.42761 | -81.29882 | 99 ft | 2 kts | 360° |
| 2026-04-25 13:45 | 28.42759 | -81.29882 | 99 ft | 0 kts | 360° |
| 2026-04-25 13:49 | 28.42763 | -81.29882 | 100 ft | 3 kts | 360° |
| 2026-04-25 13:49 | 28.42806 | -81.29882 | 102 ft | 8 kts | 360° |
| 2026-04-25 13:49 | 28.42864 | -81.29882 | 101 ft | 8 kts | 360° |
| 2026-04-25 13:50 | 28.42893 | -81.29875 | 105 ft | 3 kts | 28° |
| 2026-04-25 13:50 | 28.42901 | -81.29866 | 103 ft | 1 kts | 47° |
| 2026-04-25 13:50 | 28.42908 | -81.29844 | 102 ft | 6 kts | 72° |
| 2026-04-25 13:50 | 28.42912 | -81.29785 | 101 ft | 8 kts | 90° |
| 2026-04-25 13:51 | 28.42922 | -81.29724 | 104 ft | 7 kts | 51° |
| 2026-04-25 13:51 | 28.42967 | -81.29707 | 106 ft | 7 kts | 5° |
| 2026-04-25 13:51 | 28.43024 | -81.29707 | 105 ft | 9 kts | 359° |
| 2026-04-25 13:51 | 28.43091 | -81.29708 | 103 ft | 10 kts | 359° |
| 2026-04-25 13:52 | 28.43163 | -81.29709 | 102 ft | 11 kts | 359° |
| 2026-04-25 13:52 | 28.43212 | -81.29710 | 103 ft | 5 kts | 359° |
| 2026-04-25 13:52 | 28.43220 | -81.29710 | 103 ft | 0 kts | 359° |
| 2026-04-25 13:53 | 28.43228 | -81.29710 | 104 ft | 3 kts | 359° |
| 2026-04-25 13:53 | 28.43270 | -81.29710 | 103 ft | 7 kts | 359° |
| 2026-04-25 13:54 | 28.43323 | -81.29718 | 104 ft | 7 kts | 332° |
| 2026-04-25 13:54 | 28.43338 | -81.29772 | 103 ft | 8 kts | 282° |
| 2026-04-25 13:54 | 28.43379 | -81.29802 | 102 ft | 8 kts | 352° |
| 2026-04-25 13:54 | 28.43437 | -81.29805 | 102 ft | 9 kts | 358° |
| 2026-04-25 13:55 | 28.43495 | -81.29807 | 102 ft | 7 kts | 358° |
| 2026-04-25 13:55 | 28.43539 | -81.29792 | 103 ft | 6 kts | 44° |
| 2026-04-25 13:55 | 28.43550 | -81.29743 | 104 ft | 7 kts | 89° |
| 2026-04-25 13:55 | 28.43550 | -81.29719 | 104 ft | 0 kts | 90° |
| 2026-04-25 13:57 | 28.43549 | -81.29640 | 105 ft | 8 kts | 90° |
| 2026-04-25 13:57 | 28.43532 | -81.29591 | 106 ft | 4 kts | 150° |
| 2026-04-25 13:58 | 28.43521 | -81.29591 | 104 ft | 0 kts | 177° |
| 2026-04-25 14:01 | 28.43501 | -81.29589 | 105 ft | 15 kts | 177° |
| 2026-04-25 14:01 | 28.43169 | -81.29583 | 104 ft | 80 kts | 180° |
| 2026-04-25 14:01 | 28.42412 | -81.29575 | 102 ft | 136 kts | 179° |
| 2026-04-25 14:02 | 28.41333 | -81.29564 | 338 ft | 161 kts | 180° |
| 2026-04-25 14:02 | 28.40234 | -81.29569 | 1057 ft | 156 kts | 181° |
| 2026-04-25 14:02 | 28.39088 | -81.29570 | 1344 ft | 171 kts | 180° |
| 2026-04-25 14:02 | 28.38684 | -81.29520 | 1422 ft | 175 kts | 170° |
| 2026-04-25 14:03 | 28.36814 | -81.28407 | 1824 ft | 195 kts | 144° |
| 2026-04-25 14:03 | 28.36086 | -81.27772 | 1973 ft | 203 kts | 144° |
| 2026-04-25 14:03 | 28.34494 | -81.26413 | 2176 ft | 230 kts | 142° |
| 2026-04-25 14:03 | 28.33707 | -81.25530 | 2320 ft | 243 kts | 130° |
| 2026-04-25 14:04 | 28.32638 | -81.23211 | 2713 ft | 260 kts | 107° |
| 2026-04-25 14:04 | 28.32422 | -81.21843 | 3066 ft | 262 kts | 93° |
| 2026-04-25 14:04 | 28.32738 | -81.19830 | 3631 ft | 262 kts | 64° |
| 2026-04-25 14:04 | 28.33944 | -81.18296 | 4075 ft | 267 kts | 30° |
| 2026-04-25 14:05 | 28.35716 | -81.17825 | 4532 ft | 269 kts | 354° |
| 2026-04-25 14:05 | 28.37543 | -81.18257 | 5123 ft | 268 kts | 346° |
| 2026-04-25 14:05 | 28.39350 | -81.18729 | 5670 ft | 268 kts | 348° |
| 2026-04-25 14:05 | 28.41193 | -81.19145 | 6203 ft | 271 kts | 349° |
| 2026-04-25 14:06 | 28.43049 | -81.19552 | 6674 ft | 274 kts | 349° |
| 2026-04-25 14:06 | 28.44935 | -81.19963 | 7229 ft | 274 kts | 348° |
| 2026-04-25 14:06 | 28.47412 | -81.20513 | 7938 ft | 276 kts | 348° |
| 2026-04-25 14:06 | 28.48688 | -81.20799 | 8301 ft | 276 kts | 347° |
| 2026-04-25 14:07 | 28.50552 | -81.21219 | 8849 ft | 278 kts | 347° |
| 2026-04-25 14:07 | 28.52452 | -81.21648 | 9355 ft | 280 kts | 347° |
| 2026-04-25 14:07 | 28.54373 | -81.22082 | 9910 ft | 281 kts | 347° |
| 2026-04-25 14:07 | 28.56302 | -81.22520 | 10284 ft | 288 kts | 347° |
| 2026-04-25 14:08 | 28.58291 | -81.22972 | 10517 ft | 300 kts | 347° |
| 2026-04-25 14:08 | 28.60373 | -81.23445 | 10774 ft | 310 kts | 347° |
| 2026-04-25 14:08 | 28.62522 | -81.23933 | 11036 ft | 320 kts | 347° |
| 2026-04-25 14:08 | 28.64738 | -81.24437 | 11300 ft | 330 kts | 347° |
| 2026-04-25 14:09 | 28.67025 | -81.24956 | 11542 ft | 339 kts | 347° |
| 2026-04-25 14:09 | 28.69374 | -81.25490 | 11793 ft | 348 kts | 347° |
| 2026-04-25 14:09 | 28.71777 | -81.26037 | 12022 ft | 357 kts | 347° |
| 2026-04-25 14:09 | 28.73402 | -81.26407 | 12174 ft | 362 kts | 347° |
| 2026-04-25 14:10 | 28.76744 | -81.27167 | 12629 ft | 368 kts | 347° |
| 2026-04-25 14:10 | 28.79227 | -81.27732 | 13002 ft | 371 kts | 347° |
| 2026-04-25 14:10 | 28.81770 | -81.28311 | 13403 ft | 373 kts | 347° |
| 2026-04-25 14:10 | 28.84301 | -81.28829 | 13976 ft | 370 kts | 351° |
| 2026-04-25 14:11 | 28.86889 | -81.29105 | 14252 ft | 374 kts | 354° |
| 2026-04-25 14:11 | 28.89496 | -81.29318 | 14530 ft | 378 kts | 354° |
| 2026-04-25 14:11 | 28.92119 | -81.29533 | 14860 ft | 381 kts | 354° |
| 2026-04-25 14:11 | 28.94787 | -81.29757 | 15203 ft | 383 kts | 354° |
| 2026-04-25 14:12 | 28.97454 | -81.29982 | 15535 ft | 386 kts | 354° |
| 2026-04-25 14:12 | 29.00141 | -81.30214 | 15891 ft | 388 kts | 353° |
| 2026-04-25 14:12 | 29.02835 | -81.30503 | 16234 ft | 390 kts | 352° |
| 2026-04-25 14:12 | 29.05546 | -81.30818 | 16557 ft | 393 kts | 352° |
| 2026-04-25 14:13 | 29.08282 | -81.31132 | 16891 ft | 396 kts | 352° |
| 2026-04-25 14:13 | 29.10995 | -81.31439 | 17197 ft | 398 kts | 352° |
| 2026-04-25 14:13 | 29.13802 | -81.31679 | 17527 ft | 401 kts | 355° |
| 2026-04-25 14:13 | 29.16564 | -81.31818 | 17827 ft | 404 kts | 355° |
| 2026-04-25 14:14 | 29.19386 | -81.31962 | 18129 ft | 407 kts | 355° |
| 2026-04-25 14:14 | 29.22211 | -81.32117 | 18411 ft | 409 kts | 355° |
| 2026-04-25 14:14 | 29.25065 | -81.32280 | 18715 ft | 410 kts | 355° |
| 2026-04-25 14:14 | 29.27920 | -81.32447 | 18995 ft | 412 kts | 355° |
| 2026-04-25 14:15 | 29.30789 | -81.32617 | 19296 ft | 413 kts | 355° |
| 2026-04-25 14:15 | 29.32725 | -81.32732 | 19491 ft | 414 kts | 355° |
| 2026-04-25 14:15 | 29.36545 | -81.32962 | 19884 ft | 415 kts | 355° |
| 2026-04-25 14:15 | 29.39434 | -81.33135 | 20160 ft | 417 kts | 355° |
| 2026-04-25 14:16 | 29.42338 | -81.33310 | 20441 ft | 418 kts | 355° |
| 2026-04-25 14:16 | 29.45242 | -81.33485 | 20714 ft | 419 kts | 355° |
| 2026-04-25 14:16 | 29.48161 | -81.33661 | 20991 ft | 421 kts | 355° |
| 2026-04-25 14:16 | 29.51095 | -81.33838 | 21258 ft | 422 kts | 355° |
| 2026-04-25 14:17 | 29.54032 | -81.34015 | 21520 ft | 424 kts | 355° |
| 2026-04-25 14:17 | 29.56984 | -81.34194 | 21747 ft | 426 kts | 355° |
| 2026-04-25 14:17 | 29.59953 | -81.34373 | 21984 ft | 428 kts | 355° |
| 2026-04-25 14:17 | 29.62934 | -81.34554 | 22250 ft | 429 kts | 355° |
| 2026-04-25 14:18 | 29.65924 | -81.34737 | 22504 ft | 431 kts | 355° |
| 2026-04-25 14:18 | 29.68922 | -81.34909 | 22769 ft | 432 kts | 355° |
| 2026-04-25 14:18 | 29.71927 | -81.35077 | 23015 ft | 433 kts | 355° |
| 2026-04-25 14:18 | 29.74942 | -81.35247 | 23258 ft | 435 kts | 355° |
| 2026-04-25 14:19 | 29.77966 | -81.35419 | 23521 ft | 436 kts | 355° |
| 2026-04-25 14:19 | 29.81001 | -81.35592 | 23722 ft | 437 kts | 355° |
| 2026-04-25 14:19 | 29.84043 | -81.35767 | 23920 ft | 439 kts | 356° |
| 2026-04-25 14:19 | 29.87101 | -81.35943 | 24051 ft | 442 kts | 356° |
| 2026-04-25 14:20 | 29.90190 | -81.36120 | 24254 ft | 443 kts | 356° |
| 2026-04-25 14:20 | 29.92226 | -81.36236 | 24401 ft | 444 kts | 356° |
| 2026-04-25 14:20 | 29.96361 | -81.36474 | 24678 ft | 445 kts | 356° |
| 2026-04-25 14:20 | 29.99462 | -81.36652 | 24880 ft | 446 kts | 356° |
| 2026-04-25 14:21 | 30.02562 | -81.36830 | 25081 ft | 447 kts | 356° |
| 2026-04-25 14:21 | 30.05675 | -81.37012 | 25251 ft | 448 kts | 356° |
| 2026-04-25 14:21 | 30.08796 | -81.37193 | 25451 ft | 449 kts | 356° |
| 2026-04-25 14:21 | 30.11923 | -81.37372 | 25655 ft | 450 kts | 356° |
| 2026-04-25 14:22 | 30.15056 | -81.37552 | 25807 ft | 453 kts | 356° |
| 2026-04-25 14:22 | 30.18210 | -81.37734 | 26007 ft | 454 kts | 356° |
| 2026-04-25 14:22 | 30.21368 | -81.37916 | 26225 ft | 455 kts | 356° |
| 2026-04-25 14:22 | 30.24532 | -81.38099 | 26439 ft | 456 kts | 356° |
| 2026-04-25 14:23 | 30.27707 | -81.38283 | 26661 ft | 457 kts | 356° |
| 2026-04-25 14:23 | 30.30881 | -81.38467 | 26876 ft | 458 kts | 357° |
| 2026-04-25 14:23 | 30.34070 | -81.38652 | 27087 ft | 459 kts | 357° |
| 2026-04-25 14:23 | 30.37259 | -81.38837 | 27285 ft | 460 kts | 357° |
| 2026-04-25 14:24 | 30.40459 | -81.39023 | 27488 ft | 461 kts | 357° |
| 2026-04-25 14:24 | 30.43677 | -81.39210 | 27699 ft | 462 kts | 357° |
| 2026-04-25 14:24 | 30.46886 | -81.39398 | 27907 ft | 464 kts | 357° |
| 2026-04-25 14:24 | 30.50114 | -81.39578 | 28120 ft | 465 kts | 357° |
| 2026-04-25 14:25 | 30.52260 | -81.39688 | 28269 ft | 466 kts | 357° |
| 2026-04-25 14:25 | 30.56586 | -81.39909 | 28552 ft | 467 kts | 357° |
| 2026-04-25 14:25 | 30.59837 | -81.40078 | 28740 ft | 468 kts | 357° |
| 2026-04-25 14:25 | 30.61989 | -81.40191 | 28878 ft | 469 kts | 357° |
| 2026-04-25 14:26 | 30.66328 | -81.40420 | 29133 ft | 470 kts | 358° |
| 2026-04-25 14:26 | 30.69641 | -81.40595 | 29336 ft | 472 kts | 358° |
| 2026-04-25 14:26 | 30.72884 | -81.40767 | 29529 ft | 473 kts | 358° |
| 2026-04-25 14:26 | 30.76218 | -81.40943 | 29716 ft | 474 kts | 358° |
| 2026-04-25 14:27 | 30.79471 | -81.41116 | 29899 ft | 475 kts | 358° |
| 2026-04-25 14:27 | 30.82778 | -81.41292 | 30076 ft | 476 kts | 358° |
| 2026-04-25 14:27 | 30.86127 | -81.41470 | 30229 ft | 477 kts | 358° |
| 2026-04-25 14:27 | 30.89450 | -81.41647 | 30388 ft | 479 kts | 358° |
| 2026-04-25 14:28 | 30.92744 | -81.41823 | 30535 ft | 480 kts | 358° |
| 2026-04-25 14:28 | 30.96083 | -81.42001 | 30735 ft | 480 kts | 357° |
| 2026-04-25 14:28 | 30.99415 | -81.42178 | 30992 ft | 479 kts | 357° |
| 2026-04-25 14:28 | 31.02733 | -81.42356 | 31232 ft | 478 kts | 357° |
| 2026-04-25 14:29 | 31.06057 | -81.42533 | 31470 ft | 478 kts | 357° |
| 2026-04-25 14:29 | 31.09371 | -81.42710 | 31709 ft | 477 kts | 357° |
| 2026-04-25 14:29 | 31.12681 | -81.42887 | 31923 ft | 477 kts | 357° |
| 2026-04-25 14:29 | 31.15993 | -81.43065 | 32167 ft | 476 kts | 357° |
| 2026-04-25 14:30 | 31.19307 | -81.43241 | 32393 ft | 476 kts | 357° |
| 2026-04-25 14:30 | 31.25886 | -81.42630 | 32813 ft | 477 kts | 12° |
| 2026-04-25 14:30 | 31.29058 | -81.41454 | 32940 ft | 479 kts | 21° |
| 2026-04-25 14:31 | 31.35168 | -81.38301 | 32962 ft | 480 kts | 23° |
| 2026-04-25 14:31 | 31.41210 | -81.34969 | 33152 ft | 480 kts | 24° |
| 2026-04-25 14:32 | 31.44231 | -81.33300 | 33374 ft | 480 kts | 24° |
| 2026-04-25 14:32 | 31.47248 | -81.31641 | 33586 ft | 480 kts | 23° |
| 2026-04-25 14:32 | 31.50265 | -81.29991 | 33773 ft | 479 kts | 23° |
| 2026-04-25 14:32 | 31.53300 | -81.28337 | 33935 ft | 480 kts | 23° |
| 2026-04-25 14:33 | 31.56321 | -81.26690 | 34201 ft | 477 kts | 23° |
| 2026-04-25 14:33 | 31.59319 | -81.25057 | 34493 ft | 475 kts | 23° |
| 2026-04-25 14:33 | 31.62317 | -81.23423 | 34678 ft | 474 kts | 23° |
| 2026-04-25 14:33 | 31.65304 | -81.21795 | 34876 ft | 474 kts | 23° |
| 2026-04-25 14:34 | 31.71323 | -81.18517 | 34929 ft | 480 kts | 23° |
| 2026-04-25 14:34 | 31.77382 | -81.15203 | 34918 ft | 478 kts | 23° |
| 2026-04-25 14:35 | 31.80350 | -81.13574 | 34912 ft | 464 kts | 23° |
| 2026-04-25 14:35 | 31.83232 | -81.11989 | 34915 ft | 453 kts | 23° |
| 2026-04-25 14:35 | 31.88934 | -81.08859 | 34920 ft | 454 kts | 23° |
| 2026-04-25 14:36 | 31.94721 | -81.05685 | 34917 ft | 464 kts | 23° |
| 2026-04-25 14:36 | 32.00635 | -81.02436 | 34917 ft | 473 kts | 23° |
| 2026-04-25 14:37 | 32.06647 | -80.99098 | 34916 ft | 483 kts | 24° |
| 2026-04-25 14:37 | 32.12722 | -80.95681 | 34917 ft | 483 kts | 24° |
| 2026-04-25 14:38 | 32.18781 | -80.92272 | 34943 ft | 482 kts | 24° |
| 2026-04-25 14:38 | 32.24839 | -80.88870 | 34948 ft | 481 kts | 24° |
| 2026-04-25 14:39 | 32.30881 | -80.85473 | 34948 ft | 481 kts | 24° |
| 2026-04-25 14:39 | 32.36937 | -80.82065 | 34941 ft | 482 kts | 24° |
| 2026-04-25 14:40 | 32.42985 | -80.78656 | 34943 ft | 482 kts | 24° |
| 2026-04-25 14:40 | 32.49045 | -80.75234 | 34943 ft | 482 kts | 24° |
| 2026-04-25 14:41 | 32.55099 | -80.71811 | 34946 ft | 482 kts | 24° |
| 2026-04-25 14:41 | 32.61147 | -80.68336 | 34940 ft | 484 kts | 25° |
| 2026-04-25 14:42 | 32.65204 | -80.66011 | 34938 ft | 484 kts | 24° |
| 2026-04-25 14:42 | 32.72719 | -80.60262 | 34929 ft | 487 kts | 43° |
| 2026-04-25 14:43 | 32.77354 | -80.54383 | 34929 ft | 488 kts | 47° |
| 2026-04-25 14:43 | 32.81819 | -80.48306 | 34928 ft | 489 kts | 48° |
| 2026-04-25 14:44 | 32.86272 | -80.42198 | 34929 ft | 489 kts | 48° |
| 2026-04-25 14:44 | 32.90760 | -80.36102 | 34932 ft | 489 kts | 47° |
| 2026-04-25 14:45 | 32.95218 | -80.30049 | 34935 ft | 489 kts | 47° |
| 2026-04-25 14:45 | 32.99698 | -80.23949 | 34936 ft | 489 kts | 47° |
| 2026-04-25 14:46 | 33.04176 | -80.17840 | 34934 ft | 489 kts | 48° |
| 2026-04-25 14:46 | 33.08640 | -80.11731 | 34942 ft | 489 kts | 48° |
| 2026-04-25 14:47 | 33.11629 | -80.07642 | 34943 ft | 489 kts | 48° |
| 2026-04-25 14:47 | 33.17563 | -79.99495 | 34939 ft | 488 kts | 48° |
| 2026-04-25 14:48 | 33.22012 | -79.93368 | 34943 ft | 489 kts | 48° |
| 2026-04-25 14:48 | 33.26465 | -79.87233 | 34937 ft | 489 kts | 48° |
| 2026-04-25 14:49 | 33.30915 | -79.81097 | 35093 ft | 488 kts | 48° |
| 2026-04-25 14:49 | 33.33132 | -79.78034 | 35424 ft | 484 kts | 48° |
| 2026-04-25 14:49 | 33.35327 | -79.74999 | 35721 ft | 481 kts | 48° |
| 2026-04-25 14:50 | 33.37516 | -79.71976 | 35933 ft | 481 kts | 48° |
| 2026-04-25 14:50 | 33.39698 | -79.68955 | 36099 ft | 480 kts | 48° |
| 2026-04-25 14:50 | 33.41880 | -79.65926 | 36280 ft | 480 kts | 48° |
| 2026-04-25 14:50 | 33.44060 | -79.62899 | 36465 ft | 479 kts | 48° |
| 2026-04-25 14:51 | 33.46232 | -79.59880 | 36625 ft | 479 kts | 48° |
| 2026-04-25 14:51 | 33.48407 | -79.56856 | 36781 ft | 479 kts | 47° |
| 2026-04-25 14:51 | 33.50581 | -79.53833 | 36913 ft | 479 kts | 47° |
| 2026-04-25 14:51 | 33.52763 | -79.50798 | 36938 ft | 482 kts | 47° |
| 2026-04-25 14:52 | 33.57159 | -79.44675 | 36933 ft | 487 kts | 47° |
| 2026-04-25 14:52 | 33.60090 | -79.40587 | 36943 ft | 487 kts | 48° |
| 2026-04-25 14:53 | 33.65961 | -79.32374 | 36928 ft | 484 kts | 48° |
| 2026-04-25 14:53 | 33.69605 | -79.27274 | 36932 ft | 484 kts | 48° |
| 2026-04-25 14:54 | 33.73984 | -79.21140 | 36937 ft | 484 kts | 48° |
| 2026-04-25 14:54 | 33.78373 | -79.14979 | 36945 ft | 487 kts | 48° |
| 2026-04-25 14:55 | 33.82785 | -79.08778 | 36944 ft | 488 kts | 48° |
| 2026-04-25 14:55 | 33.87186 | -79.02584 | 36944 ft | 487 kts | 48° |
| 2026-04-25 14:56 | 33.91585 | -78.96382 | 36939 ft | 486 kts | 48° |
| 2026-04-25 14:56 | 33.95967 | -78.90193 | 36933 ft | 486 kts | 48° |
| 2026-04-25 14:57 | 34.00354 | -78.83988 | 36929 ft | 487 kts | 48° |
| 2026-04-25 14:57 | 34.04728 | -78.77797 | 36925 ft | 489 kts | 48° |
| 2026-04-25 14:58 | 34.09129 | -78.71555 | 36936 ft | 489 kts | 48° |
| 2026-04-25 14:58 | 34.13524 | -78.65306 | 36940 ft | 488 kts | 48° |
| 2026-04-25 14:59 | 34.17902 | -78.59066 | 36941 ft | 487 kts | 48° |
| 2026-04-25 14:59 | 34.22279 | -78.52823 | 36938 ft | 488 kts | 48° |
| 2026-04-25 15:00 | 34.26090 | -78.46017 | 36940 ft | 493 kts | 61° |
| 2026-04-25 15:00 | 34.29091 | -78.38570 | 36930 ft | 494 kts | 63° |
| 2026-04-25 15:01 | 34.31970 | -78.31000 | 36924 ft | 494 kts | 63° |
| 2026-04-25 15:01 | 34.34847 | -78.23449 | 36928 ft | 494 kts | 63° |
| 2026-04-25 15:02 | 34.37732 | -78.15907 | 36926 ft | 494 kts | 63° |
| 2026-04-25 15:02 | 34.40615 | -78.08347 | 36929 ft | 494 kts | 63° |
| 2026-04-25 15:03 | 34.43499 | -78.00775 | 36930 ft | 496 kts | 63° |
| 2026-04-25 15:03 | 34.46385 | -77.93169 | 36932 ft | 497 kts | 64° |
| 2026-04-25 15:04 | 34.49259 | -77.85571 | 36930 ft | 495 kts | 63° |
| 2026-04-25 15:04 | 34.52144 | -77.77994 | 36931 ft | 495 kts | 63° |
| 2026-04-25 15:05 | 34.55102 | -77.70469 | 36933 ft | 494 kts | 58° |
| 2026-04-25 15:06 | 34.61671 | -77.61023 | 36941 ft | 488 kts | 41° |
| 2026-04-25 15:06 | 34.66616 | -77.55337 | 36934 ft | 489 kts | 41° |
| 2026-04-25 15:07 | 34.71586 | -77.49688 | 36928 ft | 489 kts | 41° |
| 2026-04-25 15:07 | 34.76537 | -77.44009 | 36935 ft | 489 kts | 41° |
| 2026-04-25 15:08 | 34.81474 | -77.38303 | 36933 ft | 489 kts | 41° |
| 2026-04-25 15:08 | 34.86407 | -77.32595 | 36930 ft | 490 kts | 41° |
| 2026-04-25 15:09 | 34.91362 | -77.26856 | 36927 ft | 492 kts | 41° |
| 2026-04-25 15:09 | 34.98792 | -77.18235 | 36931 ft | 491 kts | 41° |
| 2026-04-25 15:10 | 35.03735 | -77.12492 | 36932 ft | 490 kts | 41° |
| 2026-04-25 15:11 | 35.11148 | -77.03873 | 36933 ft | 492 kts | 41° |
| 2026-04-25 15:11 | 35.16104 | -76.98085 | 36911 ft | 493 kts | 41° |
| 2026-04-25 15:12 | 35.23522 | -76.89400 | 36915 ft | 493 kts | 41° |
| 2026-04-25 15:12 | 35.26800 | -76.85553 | 36909 ft | 493 kts | 41° |
| 2026-04-25 15:13 | 35.35841 | -76.74897 | 36907 ft | 491 kts | 41° |
| 2026-04-25 15:14 | 35.40764 | -76.69086 | 36906 ft | 491 kts | 41° |
| 2026-04-25 15:14 | 35.45652 | -76.63314 | 36903 ft | 491 kts | 41° |
| 2026-04-25 15:15 | 35.50602 | -76.57461 | 36911 ft | 491 kts | 41° |
| 2026-04-25 15:15 | 35.55526 | -76.51629 | 36902 ft | 494 kts | 41° |
| 2026-04-25 15:16 | 35.60516 | -76.45816 | 36897 ft | 491 kts | 37° |
| 2026-04-25 15:16 | 35.68744 | -76.38413 | 36898 ft | 488 kts | 32° |
| 2026-04-25 15:17 | 35.77110 | -76.31235 | 36891 ft | 489 kts | 32° |
| 2026-04-25 15:18 | 35.82661 | -76.26459 | 36892 ft | 490 kts | 32° |
| 2026-04-25 15:18 | 35.91032 | -76.19229 | 36897 ft | 490 kts | 31° |
| 2026-04-25 15:19 | 35.94767 | -76.16007 | 36905 ft | 490 kts | 31° |
| 2026-04-25 15:19 | 36.02200 | -76.09573 | 36887 ft | 490 kts | 31° |
| 2026-04-25 15:20 | 36.07765 | -76.04736 | 36896 ft | 489 kts | 31° |
| 2026-04-25 15:20 | 36.13331 | -75.99884 | 36891 ft | 489 kts | 31° |
| 2026-04-25 15:21 | 36.18898 | -75.95024 | 36903 ft | 490 kts | 31° |
| 2026-04-25 15:21 | 36.24470 | -75.90152 | 36896 ft | 490 kts | 31° |
| 2026-04-25 15:22 | 36.30215 | -75.85674 | 36897 ft | 487 kts | 26° |
| 2026-04-25 15:22 | 36.36087 | -75.81493 | 36892 ft | 487 kts | 25° |
| 2026-04-25 15:23 | 36.41978 | -75.77347 | 36902 ft | 487 kts | 25° |
| 2026-04-25 15:23 | 36.47862 | -75.73197 | 36890 ft | 486 kts | 25° |
| 2026-04-25 15:24 | 36.53740 | -75.69037 | 36896 ft | 486 kts | 25° |
| 2026-04-25 15:24 | 36.57668 | -75.66252 | 36896 ft | 486 kts | 25° |
| 2026-04-25 15:25 | 36.65478 | -75.60700 | 36897 ft | 486 kts | 25° |
| 2026-04-25 15:25 | 36.71358 | -75.56513 | 36894 ft | 487 kts | 25° |
| 2026-04-25 15:26 | 36.77234 | -75.52319 | 36894 ft | 487 kts | 25° |
| 2026-04-25 15:26 | 36.83111 | -75.48118 | 36910 ft | 487 kts | 24° |
| 2026-04-25 15:27 | 36.88991 | -75.43908 | 36898 ft | 488 kts | 24° |
| 2026-04-25 15:28 | 36.97822 | -75.37570 | 36902 ft | 487 kts | 25° |
| 2026-04-25 15:28 | 37.03691 | -75.33348 | 36906 ft | 486 kts | 25° |
| 2026-04-25 15:29 | 37.09562 | -75.29118 | 36909 ft | 487 kts | 24° |
| 2026-04-25 15:29 | 37.15434 | -75.24867 | 36912 ft | 488 kts | 25° |
| 2026-04-25 15:30 | 37.21310 | -75.20601 | 36917 ft | 488 kts | 25° |
| 2026-04-25 15:30 | 37.27185 | -75.16339 | 36919 ft | 488 kts | 24° |
| 2026-04-25 15:31 | 37.33033 | -75.12095 | 36920 ft | 489 kts | 24° |
| 2026-04-25 15:31 | 37.38962 | -75.07785 | 36926 ft | 489 kts | 24° |
| 2026-04-25 15:32 | 37.44803 | -75.03528 | 36927 ft | 488 kts | 24° |
| 2026-04-25 15:32 | 37.50661 | -74.99251 | 36927 ft | 486 kts | 24° |
| 2026-04-25 15:33 | 37.59444 | -74.92827 | 36933 ft | 486 kts | 25° |
| 2026-04-25 15:33 | 37.65317 | -74.88542 | 36932 ft | 485 kts | 23° |
| 2026-04-25 15:34 | 37.71290 | -74.84645 | 36940 ft | 484 kts | 20° |
| 2026-04-25 15:34 | 37.75324 | -74.82120 | 36938 ft | 484 kts | 20° |
| 2026-04-25 15:35 | 37.86347 | -74.75081 | 36949 ft | 485 kts | 21° |
| 2026-04-25 15:36 | 37.95347 | -74.69227 | 36957 ft | 485 kts | 21° |
| 2026-04-25 15:36 | 38.01355 | -74.65308 | 36953 ft | 485 kts | 21° |
| 2026-04-25 15:37 | 38.07357 | -74.61389 | 36965 ft | 485 kts | 21° |
| 2026-04-25 15:37 | 38.13367 | -74.57458 | 36973 ft | 485 kts | 21° |
| 2026-04-25 15:38 | 38.19371 | -74.53523 | 36979 ft | 486 kts | 21° |
| 2026-04-25 15:38 | 38.25379 | -74.49579 | 36983 ft | 486 kts | 21° |
| 2026-04-25 15:39 | 38.31374 | -74.45643 | 37013 ft | 486 kts | 20° |
| 2026-04-25 15:39 | 38.36407 | -74.42349 | 36993 ft | 485 kts | 20° |
| 2026-04-25 15:40 | 38.41398 | -74.39071 | 36993 ft | 485 kts | 21° |
| 2026-04-25 15:40 | 38.48366 | -74.34469 | 37005 ft | 485 kts | 21° |
| 2026-04-25 15:41 | 38.54333 | -74.30513 | 37009 ft | 482 kts | 21° |
| 2026-04-25 15:41 | 38.60292 | -74.26557 | 37018 ft | 482 kts | 21° |
| 2026-04-25 15:42 | 38.66237 | -74.22605 | 37018 ft | 482 kts | 21° |
| 2026-04-25 15:42 | 38.72192 | -74.18638 | 37018 ft | 482 kts | 21° |
| 2026-04-25 15:43 | 38.78145 | -74.14664 | 37025 ft | 482 kts | 21° |
| 2026-04-25 15:43 | 38.84089 | -74.10689 | 37027 ft | 482 kts | 21° |
| 2026-04-25 15:44 | 38.90037 | -74.06704 | 37031 ft | 482 kts | 21° |
| 2026-04-25 15:44 | 38.95986 | -74.02711 | 37038 ft | 482 kts | 21° |
| 2026-04-25 15:45 | 39.01803 | -73.98348 | 37045 ft | 488 kts | 27° |
| 2026-04-25 15:45 | 39.06461 | -73.94250 | 37042 ft | 487 kts | 28° |
| 2026-04-25 15:46 | 39.12951 | -73.88393 | 37073 ft | 488 kts | 28° |
| 2026-04-25 15:46 | 39.18500 | -73.83365 | 37050 ft | 487 kts | 28° |
| 2026-04-25 15:47 | 39.24049 | -73.78342 | 37068 ft | 487 kts | 28° |
| 2026-04-25 15:47 | 39.29594 | -73.73318 | 37074 ft | 487 kts | 28° |
| 2026-04-25 15:48 | 39.35144 | -73.68281 | 37075 ft | 487 kts | 28° |
| 2026-04-25 15:48 | 39.40687 | -73.63241 | 37083 ft | 487 kts | 28° |
| 2026-04-25 15:49 | 39.46204 | -73.58211 | 37072 ft | 486 kts | 28° |
| 2026-04-25 15:49 | 39.51735 | -73.53162 | 37078 ft | 486 kts | 28° |
| 2026-04-25 15:50 | 39.57218 | -73.48147 | 37082 ft | 486 kts | 28° |
| 2026-04-25 15:50 | 39.62731 | -73.43093 | 37086 ft | 486 kts | 28° |
| 2026-04-25 15:51 | 39.67350 | -73.38851 | 37093 ft | 486 kts | 28° |
| 2026-04-25 15:51 | 39.73761 | -73.32953 | 37096 ft | 485 kts | 28° |
| 2026-04-25 15:52 | 39.79232 | -73.27786 | 37099 ft | 489 kts | 33° |
| 2026-04-25 15:52 | 39.83896 | -73.21202 | 37101 ft | 501 kts | 46° |
| 2026-04-25 15:53 | 39.88041 | -73.13894 | 37102 ft | 503 kts | 48° |
| 2026-04-25 15:53 | 39.92100 | -73.06485 | 37108 ft | 502 kts | 48° |
| 2026-04-25 15:54 | 39.96156 | -72.99086 | 37108 ft | 501 kts | 48° |
| 2026-04-25 15:54 | 40.00218 | -72.91705 | 37112 ft | 501 kts | 48° |
| 2026-04-25 15:55 | 40.04278 | -72.84329 | 37099 ft | 500 kts | 48° |
| 2026-04-25 15:55 | 40.08328 | -72.76954 | 37116 ft | 499 kts | 48° |
| 2026-04-25 15:56 | 40.12368 | -72.69579 | 37123 ft | 499 kts | 48° |
| 2026-04-25 15:56 | 40.16399 | -72.62202 | 37122 ft | 499 kts | 48° |
| 2026-04-25 15:57 | 40.20427 | -72.54813 | 37129 ft | 498 kts | 48° |
| 2026-04-25 15:57 | 40.24444 | -72.47425 | 37131 ft | 497 kts | 48° |
| 2026-04-25 15:58 | 40.28445 | -72.40050 | 37137 ft | 497 kts | 48° |
| 2026-04-25 15:58 | 40.32445 | -72.32661 | 37137 ft | 497 kts | 48° |
| 2026-04-25 15:59 | 40.36443 | -72.25258 | 37154 ft | 497 kts | 48° |
| 2026-04-25 15:59 | 40.40428 | -72.17861 | 37140 ft | 497 kts | 48° |
| 2026-04-25 16:00 | 40.43094 | -72.12902 | 37139 ft | 497 kts | 48° |
| 2026-04-25 16:00 | 40.48394 | -72.03011 | 37134 ft | 498 kts | 48° |
| 2026-04-25 16:01 | 40.51673 | -71.94890 | 37140 ft | 508 kts | 59° |
| 2026-04-25 16:01 | 40.54489 | -71.86346 | 37161 ft | 510 kts | 60° |
| 2026-04-25 16:02 | 40.57234 | -71.77734 | 37148 ft | 511 kts | 60° |
| 2026-04-25 16:02 | 40.59982 | -71.69114 | 37150 ft | 511 kts | 60° |
| 2026-04-25 16:03 | 40.62736 | -71.60501 | 37153 ft | 511 kts | 60° |
| 2026-04-25 16:03 | 40.65492 | -71.51876 | 37147 ft | 511 kts | 60° |
| 2026-04-25 16:04 | 40.68246 | -71.43231 | 37169 ft | 511 kts | 60° |
| 2026-04-25 16:04 | 40.70990 | -71.34588 | 37152 ft | 512 kts | 60° |
| 2026-04-25 16:05 | 40.73731 | -71.25927 | 37148 ft | 512 kts | 60° |
| 2026-04-25 16:06 | 40.77830 | -71.12919 | 37146 ft | 512 kts | 60° |
| 2026-04-25 16:06 | 40.80552 | -71.04251 | 37146 ft | 512 kts | 60° |
| 2026-04-25 16:07 | 40.83185 | -70.95504 | 37146 ft | 514 kts | 63° |
| 2026-04-25 16:07 | 40.85473 | -70.86520 | 37165 ft | 516 kts | 64° |
| 2026-04-25 16:08 | 40.87722 | -70.77507 | 37143 ft | 517 kts | 64° |
| 2026-04-25 16:08 | 40.90021 | -70.68516 | 37143 ft | 516 kts | 64° |
| 2026-04-25 16:09 | 40.92325 | -70.59598 | 37141 ft | 516 kts | 64° |
| 2026-04-25 16:09 | 40.93983 | -70.53178 | 37180 ft | 516 kts | 63° |
| 2026-04-25 16:10 | 40.96212 | -70.44510 | 37155 ft | 516 kts | 63° |
| 2026-04-25 16:10 | 40.98513 | -70.35524 | 37137 ft | 516 kts | 63° |
| 2026-04-25 16:11 | 41.00805 | -70.26536 | 37139 ft | 516 kts | 63° |
| 2026-04-25 16:11 | 41.03090 | -70.17539 | 37155 ft | 516 kts | 63° |
| 2026-04-25 16:12 | 41.05369 | -70.08535 | 37146 ft | 515 kts | 63° |
| 2026-04-25 16:12 | 41.07641 | -69.99525 | 37142 ft | 515 kts | 63° |
| 2026-04-25 16:13 | 41.09903 | -69.90520 | 37149 ft | 515 kts | 63° |
| 2026-04-25 16:13 | 41.12163 | -69.81490 | 37149 ft | 515 kts | 63° |
| 2026-04-25 16:14 | 41.14412 | -69.72469 | 37141 ft | 515 kts | 63° |
| 2026-04-25 16:14 | 41.16657 | -69.63429 | 37141 ft | 515 kts | 63° |
| 2026-04-25 16:15 | 41.18893 | -69.54390 | 37140 ft | 515 kts | 63° |
| 2026-04-25 16:15 | 41.21102 | -69.45421 | 37138 ft | 514 kts | 63° |
| 2026-04-25 16:16 | 41.23318 | -69.36390 | 37137 ft | 515 kts | 63° |
| 2026-04-25 16:16 | 41.25506 | -69.27324 | 37137 ft | 515 kts | 63° |
| 2026-04-25 16:17 | 41.27705 | -69.18269 | 37167 ft | 515 kts | 63° |
| 2026-04-25 16:17 | 41.29905 | -69.09211 | 37135 ft | 514 kts | 63° |
| 2026-04-25 16:18 | 41.32088 | -69.00178 | 37129 ft | 512 kts | 63° |
| 2026-04-25 16:18 | 41.34262 | -68.91154 | 37129 ft | 512 kts | 63° |
| 2026-04-25 16:19 | 41.36441 | -68.82131 | 37138 ft | 512 kts | 63° |
| 2026-04-25 16:19 | 41.38598 | -68.73102 | 37126 ft | 511 kts | 63° |
| 2026-04-25 16:20 | 41.41811 | -68.59561 | 37121 ft | 511 kts | 63° |
| 2026-04-25 16:21 | 41.44998 | -68.46010 | 37114 ft | 511 kts | 64° |
| 2026-04-25 16:21 | 41.47118 | -68.36969 | 37114 ft | 511 kts | 64° |
| 2026-04-25 16:22 | 41.49231 | -68.27939 | 37110 ft | 511 kts | 64° |
| 2026-04-25 16:22 | 41.51341 | -68.18900 | 37156 ft | 511 kts | 64° |
| 2026-04-25 16:23 | 41.53451 | -68.09839 | 37113 ft | 512 kts | 64° |
| 2026-04-25 16:23 | 41.55560 | -68.00742 | 37113 ft | 512 kts | 64° |
| 2026-04-25 16:24 | 41.57671 | -67.91660 | 37110 ft | 512 kts | 63° |
| 2026-04-25 16:24 | 41.59777 | -67.82562 | 37110 ft | 512 kts | 64° |
| 2026-04-25 16:25 | 41.61175 | -67.76469 | 37105 ft | 513 kts | 64° |
| 2026-04-25 16:25 | 41.63589 | -67.65883 | 37097 ft | 513 kts | 64° |
| 2026-04-25 16:26 | 41.65660 | -67.56748 | 37102 ft | 513 kts | 64° |
| 2026-04-25 16:26 | 41.67724 | -67.47610 | 37100 ft | 514 kts | 64° |
| 2026-04-25 16:27 | 41.69787 | -67.38440 | 37099 ft | 514 kts | 64° |
| 2026-04-25 16:27 | 41.71838 | -67.29280 | 37096 ft | 514 kts | 64° |
| 2026-04-25 16:28 | 41.73885 | -67.20104 | 37113 ft | 515 kts | 65° |
| 2026-04-25 16:28 | 41.75925 | -67.10925 | 37089 ft | 515 kts | 65° |
| 2026-04-25 16:29 | 41.77974 | -67.01726 | 37084 ft | 513 kts | 63° |
| 2026-04-25 16:29 | 41.80517 | -66.92877 | 37086 ft | 507 kts | 59° |
| 2026-04-25 16:30 | 41.83186 | -66.84131 | 37101 ft | 507 kts | 59° |
| 2026-04-25 16:30 | 41.85874 | -66.75380 | 37067 ft | 507 kts | 59° |
| 2026-04-25 16:31 | 41.88548 | -66.66626 | 37082 ft | 507 kts | 59° |
| 2026-04-25 16:31 | 41.91210 | -66.57859 | 37081 ft | 507 kts | 59° |
| 2026-04-25 16:32 | 41.93863 | -66.49079 | 37067 ft | 507 kts | 60° |
| 2026-04-25 16:32 | 41.96488 | -66.40368 | 37069 ft | 506 kts | 60° |
| 2026-04-25 16:33 | 41.99146 | -66.31521 | 37059 ft | 506 kts | 60° |
| 2026-04-25 16:33 | 42.01755 | -66.22806 | 37073 ft | 506 kts | 61° |
| 2026-04-25 16:34 | 42.04360 | -66.14011 | 37059 ft | 506 kts | 62° |
| 2026-04-25 16:34 | 42.06952 | -66.05218 | 37049 ft | 505 kts | 61° |
| 2026-04-25 16:35 | 42.09562 | -65.96456 | 37045 ft | 505 kts | 62° |
| 2026-04-25 16:35 | 42.12163 | -65.87678 | 37039 ft | 505 kts | 62° |
| 2026-04-25 16:36 | 42.14742 | -65.78879 | 37035 ft | 505 kts | 62° |
| 2026-04-25 16:36 | 42.17300 | -65.70131 | 37031 ft | 505 kts | 62° |
| 2026-04-25 16:37 | 42.19875 | -65.61327 | 37041 ft | 505 kts | 62° |
| 2026-04-25 16:37 | 42.22455 | -65.52532 | 37026 ft | 504 kts | 62° |
| 2026-04-25 16:38 | 42.25024 | -65.43711 | 37022 ft | 505 kts | 62° |
| 2026-04-25 16:38 | 42.27579 | -65.34896 | 37026 ft | 505 kts | 63° |
| 2026-04-25 16:39 | 42.30129 | -65.26055 | 37017 ft | 505 kts | 63° |
| 2026-04-25 16:39 | 42.32663 | -65.17232 | 37015 ft | 503 kts | 63° |
| 2026-04-25 16:40 | 42.35183 | -65.08431 | 37013 ft | 502 kts | 63° |
| 2026-04-25 16:40 | 42.37699 | -64.99614 | 37029 ft | 503 kts | 63° |
| 2026-04-25 16:41 | 42.40212 | -64.90791 | 37001 ft | 502 kts | 64° |
| 2026-04-25 16:41 | 42.43959 | -64.77565 | 37001 ft | 502 kts | 64° |
| 2026-04-25 16:42 | 42.46445 | -64.68748 | 36998 ft | 502 kts | 64° |
| 2026-04-25 16:42 | 42.48929 | -64.59905 | 36997 ft | 502 kts | 64° |
| 2026-04-25 16:43 | 42.51409 | -64.51043 | 36988 ft | 503 kts | 64° |
| 2026-04-25 16:43 | 42.53883 | -64.42172 | 36987 ft | 503 kts | 64° |
| 2026-04-25 16:44 | 42.56348 | -64.33301 | 36985 ft | 503 kts | 64° |
| 2026-04-25 16:44 | 42.58807 | -64.24418 | 36989 ft | 503 kts | 65° |
| 2026-04-25 16:45 | 42.61241 | -64.15591 | 36973 ft | 503 kts | 65° |
| 2026-04-25 16:45 | 42.63686 | -64.06694 | 36971 ft | 503 kts | 65° |
| 2026-04-25 16:46 | 42.66122 | -63.97799 | 36970 ft | 503 kts | 65° |
| 2026-04-25 16:46 | 42.67751 | -63.91836 | 36968 ft | 503 kts | 65° |
| 2026-04-25 16:47 | 42.70980 | -63.79957 | 36960 ft | 502 kts | 65° |
| 2026-04-25 16:47 | 42.73389 | -63.71055 | 36955 ft | 501 kts | 66° |
| 2026-04-25 16:48 | 42.75785 | -63.62152 | 36953 ft | 501 kts | 66° |
| 2026-04-25 16:48 | 42.78171 | -63.53266 | 36950 ft | 499 kts | 66° |
| 2026-04-25 16:49 | 42.80548 | -63.44385 | 36946 ft | 498 kts | 66° |
| 2026-04-25 16:49 | 42.82914 | -63.35524 | 36928 ft | 497 kts | 66° |
| 2026-04-25 16:50 | 42.85274 | -63.26657 | 36945 ft | 498 kts | 66° |
| 2026-04-25 16:50 | 42.87627 | -63.17779 | 36938 ft | 497 kts | 66° |
| 2026-04-25 16:51 | 42.89967 | -63.08920 | 36938 ft | 497 kts | 66° |
| 2026-04-25 16:51 | 42.91908 | -63.01546 | 36925 ft | 496 kts | 66° |
| 2026-04-25 16:52 | 42.94626 | -62.91183 | 36914 ft | 496 kts | 66° |
| 2026-04-25 16:52 | 42.96939 | -62.82327 | 36914 ft | 496 kts | 66° |
| 2026-04-25 16:53 | 43.00319 | -62.69331 | 36912 ft | 496 kts | 67° |
| 2026-04-25 16:54 | 43.02618 | -62.60446 | 36911 ft | 496 kts | 67° |
| 2026-04-25 16:54 | 43.04910 | -62.51558 | 36902 ft | 496 kts | 67° |
| 2026-04-25 16:55 | 43.07195 | -62.42658 | 36890 ft | 496 kts | 67° |
| 2026-04-25 16:55 | 43.09472 | -62.33742 | 36894 ft | 496 kts | 67° |
| 2026-04-25 16:56 | 43.11747 | -62.24815 | 36881 ft | 497 kts | 67° |
| 2026-04-25 16:56 | 43.14014 | -62.15887 | 36878 ft | 497 kts | 67° |
| 2026-04-25 16:57 | 43.16275 | -62.06950 | 36870 ft | 497 kts | 68° |
| 2026-04-25 16:57 | 43.18531 | -61.98002 | 36870 ft | 497 kts | 68° |
| 2026-04-25 16:58 | 43.20780 | -61.89045 | 36859 ft | 497 kts | 68° |
| 2026-04-25 16:58 | 43.23021 | -61.80088 | 36853 ft | 497 kts | 68° |
| 2026-04-25 16:59 | 43.25256 | -61.71116 | 36851 ft | 497 kts | 68° |
| 2026-04-25 16:59 | 43.27485 | -61.62136 | 36852 ft | 497 kts | 68° |
| 2026-04-25 17:00 | 43.29707 | -61.53151 | 36847 ft | 497 kts | 68° |
| 2026-04-25 17:00 | 43.31923 | -61.44155 | 36839 ft | 498 kts | 68° |
| 2026-04-25 17:01 | 43.34128 | -61.35198 | 36831 ft | 498 kts | 68° |
| 2026-04-25 17:01 | 43.36344 | -61.26199 | 36830 ft | 498 kts | 68° |
| 2026-04-25 17:02 | 43.38549 | -61.17169 | 36822 ft | 498 kts | 68° |
| 2026-04-25 17:02 | 43.40738 | -61.08141 | 36822 ft | 498 kts | 68° |
| 2026-04-25 17:03 | 43.42936 | -60.99036 | 36812 ft | 498 kts | 68° |
| 2026-04-25 17:03 | 43.45099 | -60.90042 | 36818 ft | 498 kts | 68° |
| 2026-04-25 17:04 | 43.47267 | -60.80991 | 36804 ft | 499 kts | 68° |
| 2026-04-25 17:04 | 43.49448 | -60.71850 | 36801 ft | 499 kts | 68° |
| 2026-04-25 17:05 | 43.51591 | -60.62831 | 36795 ft | 499 kts | 69° |
| 2026-04-25 17:05 | 43.54818 | -60.49180 | 36790 ft | 499 kts | 69° |
| 2026-04-25 17:06 | 43.56957 | -60.40088 | 36781 ft | 499 kts | 69° |
| 2026-04-25 17:06 | 43.59092 | -60.30976 | 36783 ft | 499 kts | 69° |
| 2026-04-25 17:07 | 43.61216 | -60.21866 | 36773 ft | 499 kts | 69° |
| 2026-04-25 17:07 | 43.63336 | -60.12739 | 36774 ft | 499 kts | 69° |
| 2026-04-25 17:08 | 43.65449 | -60.03610 | 36763 ft | 499 kts | 69° |
| 2026-04-25 17:08 | 43.67550 | -59.94489 | 36769 ft | 499 kts | 69° |
| 2026-04-25 17:09 | 43.69654 | -59.85325 | 36751 ft | 499 kts | 69° |
| 2026-04-25 17:09 | 43.71742 | -59.76190 | 36750 ft | 499 kts | 69° |
| 2026-04-25 17:10 | 43.73826 | -59.67031 | 36744 ft | 499 kts | 70° |
| 2026-04-25 17:10 | 43.75904 | -59.57857 | 36730 ft | 499 kts | 70° |
| 2026-04-25 17:11 | 43.77972 | -59.48695 | 36733 ft | 499 kts | 70° |
| 2026-04-25 17:11 | 43.79688 | -59.41061 | 36720 ft | 499 kts | 70° |
| 2026-04-25 17:12 | 43.81743 | -59.31879 | 36724 ft | 499 kts | 70° |
| 2026-04-25 17:12 | 43.83791 | -59.22693 | 36715 ft | 499 kts | 70° |
| 2026-04-25 17:13 | 43.85504 | -59.14980 | 36720 ft | 499 kts | 70° |
| 2026-04-25 17:13 | 43.87867 | -59.04290 | 36706 ft | 500 kts | 70° |
| 2026-04-25 17:14 | 43.89895 | -58.95077 | 36698 ft | 500 kts | 70° |
| 2026-04-25 17:14 | 43.91918 | -58.85847 | 36702 ft | 500 kts | 70° |
| 2026-04-25 17:15 | 43.93928 | -58.76627 | 36696 ft | 500 kts | 70° |
| 2026-04-25 17:15 | 43.95934 | -58.67391 | 36705 ft | 500 kts | 70° |
| 2026-04-25 17:16 | 43.97936 | -58.58140 | 36700 ft | 500 kts | 70° |
| 2026-04-25 17:16 | 43.99925 | -58.48903 | 36701 ft | 500 kts | 71° |
| 2026-04-25 17:17 | 44.01913 | -58.39630 | 36672 ft | 500 kts | 70° |
| 2026-04-25 17:17 | 44.03892 | -58.30363 | 36677 ft | 500 kts | 70° |
| 2026-04-25 17:18 | 44.05860 | -58.21101 | 36666 ft | 500 kts | 70° |
| 2026-04-25 17:18 | 44.07821 | -58.11825 | 36662 ft | 500 kts | 70° |
| 2026-04-25 17:19 | 44.09775 | -58.02543 | 36661 ft | 500 kts | 71° |
| 2026-04-25 17:19 | 44.11722 | -57.93249 | 36648 ft | 500 kts | 71° |
| 2026-04-25 17:20 | 44.13646 | -57.84028 | 36647 ft | 500 kts | 71° |
| 2026-04-25 17:20 | 44.15578 | -57.74728 | 36636 ft | 500 kts | 71° |
| 2026-04-25 17:21 | 44.17501 | -57.65427 | 36639 ft | 500 kts | 71° |
| 2026-04-25 17:21 | 44.19414 | -57.56135 | 36640 ft | 500 kts | 71° |
| 2026-04-25 17:22 | 44.21015 | -57.48322 | 36639 ft | 500 kts | 71° |
| 2026-04-25 17:22 | 44.23228 | -57.37482 | 36629 ft | 500 kts | 71° |
| 2026-04-25 17:23 | 44.25123 | -57.28143 | 36617 ft | 501 kts | 71° |
| 2026-04-25 17:23 | 44.27011 | -57.18798 | 36616 ft | 501 kts | 71° |
| 2026-04-25 17:24 | 44.28894 | -57.09437 | 36608 ft | 501 kts | 72° |
| 2026-04-25 17:24 | 44.30769 | -57.00066 | 36607 ft | 502 kts | 72° |
| 2026-04-25 17:25 | 44.32641 | -56.90674 | 36601 ft | 503 kts | 72° |
| 2026-04-25 17:25 | 44.34509 | -56.81256 | 36605 ft | 503 kts | 71° |
| 2026-04-25 17:26 | 44.36366 | -56.71838 | 36589 ft | 503 kts | 72° |
| 2026-04-25 17:26 | 44.38222 | -56.62399 | 36600 ft | 504 kts | 71° |
| 2026-04-25 17:27 | 44.40067 | -56.52954 | 36575 ft | 504 kts | 72° |
| 2026-04-25 17:27 | 44.41295 | -56.46634 | 36575 ft | 504 kts | 71° |
| 2026-04-25 17:28 | 44.43728 | -56.34074 | 36571 ft | 504 kts | 72° |
| 2026-04-25 17:28 | 44.45559 | -56.24571 | 36556 ft | 504 kts | 72° |
| 2026-04-25 17:29 | 44.47372 | -56.15116 | 36790 ft | 503 kts | 72° |
| 2026-04-25 17:29 | 44.48276 | -56.10374 | 36977 ft | 502 kts | 73° |
| 2026-04-25 17:29 | 44.49024 | -56.05602 | 37128 ft | 504 kts | 77° |
| 2026-04-25 17:30 | 44.50177 | -55.95879 | 37361 ft | 507 kts | 78° |
| 2026-04-25 17:30 | 44.50716 | -55.90996 | 37474 ft | 507 kts | 79° |
| 2026-04-25 17:30 | 44.51245 | -55.86111 | 37579 ft | 508 kts | 79° |
| 2026-04-25 17:31 | 44.51774 | -55.81216 | 37726 ft | 508 kts | 79° |
| 2026-04-25 17:31 | 44.52300 | -55.76327 | 37827 ft | 509 kts | 79° |
| 2026-04-25 17:31 | 44.52829 | -55.71421 | 37944 ft | 509 kts | 79° |
| 2026-04-25 17:31 | 44.53358 | -55.66511 | 38021 ft | 510 kts | 79° |
| 2026-04-25 17:32 | 44.53889 | -55.61592 | 38164 ft | 510 kts | 79° |
| 2026-04-25 17:32 | 44.54418 | -55.56672 | 38173 ft | 512 kts | 79° |
| 2026-04-25 17:32 | 44.54947 | -55.51740 | 38321 ft | 510 kts | 80° |
| 2026-04-25 17:32 | 44.55465 | -55.46876 | 38374 ft | 512 kts | 79° |
| 2026-04-25 17:33 | 44.55994 | -55.41888 | 38476 ft | 511 kts | 79° |
| 2026-04-25 17:33 | 44.56516 | -55.36949 | 38518 ft | 513 kts | 80° |
| 2026-04-25 17:33 | 44.57556 | -55.27048 | 38509 ft | 515 kts | 80° |
| 2026-04-25 17:34 | 44.58591 | -55.17097 | 38509 ft | 515 kts | 80° |
| 2026-04-25 17:34 | 44.59609 | -55.07222 | 38501 ft | 516 kts | 80° |
| 2026-04-25 17:35 | 44.60635 | -54.97192 | 38489 ft | 517 kts | 80° |
| 2026-04-25 17:35 | 44.61646 | -54.87200 | 38480 ft | 517 kts | 80° |
| 2026-04-25 17:36 | 44.62647 | -54.77228 | 38474 ft | 516 kts | 80° |
| 2026-04-25 17:36 | 44.63637 | -54.67293 | 38474 ft | 516 kts | 81° |
| 2026-04-25 17:37 | 44.64618 | -54.57351 | 38465 ft | 513 kts | 80° |
| 2026-04-25 17:37 | 44.65598 | -54.47315 | 38464 ft | 517 kts | 80° |
| 2026-04-25 17:38 | 44.66240 | -54.40684 | 38461 ft | 518 kts | 81° |
| 2026-04-25 17:38 | 44.67520 | -54.27357 | 38448 ft | 517 kts | 81° |
| 2026-04-25 17:39 | 44.68474 | -54.17310 | 38456 ft | 518 kts | 80° |
| 2026-04-25 17:39 | 44.69414 | -54.07315 | 38437 ft | 515 kts | 80° |
| 2026-04-25 17:40 | 44.70361 | -53.97327 | 38438 ft | 516 kts | 81° |
| 2026-04-25 17:40 | 44.71290 | -53.87304 | 38423 ft | 518 kts | 81° |
| 2026-04-25 17:41 | 44.72198 | -53.77273 | 38422 ft | 517 kts | 81° |
| 2026-04-25 17:41 | 44.73098 | -53.67251 | 38420 ft | 517 kts | 81° |
| 2026-04-25 17:42 | 44.73992 | -53.57238 | 38411 ft | 516 kts | 81° |
| 2026-04-25 17:42 | 44.74877 | -53.47245 | 38401 ft | 516 kts | 82° |
| 2026-04-25 17:43 | 44.75756 | -53.37220 | 38402 ft | 517 kts | 82° |
| 2026-04-25 17:43 | 44.76630 | -53.27156 | 38403 ft | 518 kts | 82° |
| 2026-04-25 17:44 | 44.77493 | -53.17111 | 38397 ft | 518 kts | 82° |
| 2026-04-25 17:44 | 44.78350 | -53.07044 | 38393 ft | 517 kts | 82° |
| 2026-04-25 17:45 | 44.78910 | -53.00395 | 38383 ft | 517 kts | 82° |
| 2026-04-25 17:45 | 44.80033 | -52.86942 | 38385 ft | 517 kts | 82° |
| 2026-04-25 17:46 | 44.80856 | -52.76951 | 38382 ft | 517 kts | 82° |
| 2026-04-25 17:46 | 44.81674 | -52.66892 | 38383 ft | 517 kts | 82° |
| 2026-04-25 17:47 | 44.82485 | -52.56831 | 38373 ft | 517 kts | 82° |
| 2026-04-25 17:47 | 44.83286 | -52.46775 | 38375 ft | 516 kts | 82° |
| 2026-04-25 17:48 | 44.84471 | -52.31683 | 38361 ft | 518 kts | 83° |
| 2026-04-25 17:49 | 44.85252 | -52.21594 | 38354 ft | 518 kts | 83° |
| 2026-04-25 17:49 | 44.86025 | -52.11495 | 38358 ft | 518 kts | 83° |
| 2026-04-25 17:50 | 44.86788 | -52.01407 | 38344 ft | 518 kts | 83° |
| 2026-04-25 17:50 | 44.87543 | -51.91295 | 38345 ft | 519 kts | 83° |
| 2026-04-25 17:51 | 44.88289 | -51.81187 | 38339 ft | 519 kts | 83° |
| 2026-04-25 17:51 | 44.89032 | -51.71042 | 38338 ft | 521 kts | 83° |
| 2026-04-25 17:52 | 44.89751 | -51.60899 | 38331 ft | 520 kts | 84° |
| 2026-04-25 17:52 | 44.90463 | -51.50745 | 38328 ft | 520 kts | 84° |
| 2026-04-25 17:53 | 44.91168 | -51.40592 | 38331 ft | 520 kts | 84° |
| 2026-04-25 17:53 | 44.91865 | -51.30445 | 38317 ft | 520 kts | 84° |
| 2026-04-25 17:54 | 44.92552 | -51.20296 | 38322 ft | 521 kts | 84° |
| 2026-04-25 17:54 | 44.93232 | -51.10134 | 38318 ft | 521 kts | 84° |
| 2026-04-25 17:55 | 44.93903 | -50.99964 | 38318 ft | 519 kts | 84° |
| 2026-04-25 17:55 | 44.94562 | -50.89829 | 38309 ft | 519 kts | 84° |
| 2026-04-25 17:56 | 44.95214 | -50.79670 | 38303 ft | 519 kts | 85° |
| 2026-04-25 17:56 | 44.95730 | -50.69591 | 38301 ft | 519 kts | 90° |
| 2026-04-25 17:57 | 44.96169 | -50.59401 | 38307 ft | 521 kts | 89° |
| 2026-04-25 17:57 | 44.96719 | -50.49187 | 38300 ft | 522 kts | 88° |
| 2026-04-25 17:58 | 44.97331 | -50.38983 | 38304 ft | 522 kts | 88° |
| 2026-04-25 17:58 | 44.97947 | -50.28791 | 38287 ft | 521 kts | 88° |
| 2026-04-25 17:59 | 44.98455 | -50.20238 | 38292 ft | 521 kts | 88° |
| 2026-04-25 17:59 | 44.99050 | -50.10024 | 38295 ft | 523 kts | 89° |
| 2026-04-25 18:00 | 44.99910 | -49.99835 | 38300 ft | 523 kts | 79° |
| 2026-04-25 18:00 | 45.02082 | -49.90005 | 38288 ft | 524 kts | 74° |
| 2026-04-25 18:01 | 45.04517 | -49.80284 | 38297 ft | 525 kts | 69° |
| 2026-04-25 18:01 | 45.07145 | -49.70667 | 38276 ft | 523 kts | 69° |
| 2026-04-25 18:02 | 45.09677 | -49.61089 | 38295 ft | 523 kts | 70° |
| 2026-04-25 18:02 | 45.12117 | -49.51374 | 38287 ft | 524 kts | 71° |
| 2026-04-25 18:03 | 45.14512 | -49.41626 | 38281 ft | 526 kts | 71° |
| 2026-04-25 18:03 | 45.16910 | -49.31812 | 38283 ft | 528 kts | 71° |
| 2026-04-25 18:04 | 45.19313 | -49.21960 | 38286 ft | 528 kts | 72° |
| 2026-04-25 18:04 | 45.21705 | -49.12120 | 38281 ft | 528 kts | 72° |
| 2026-04-25 18:05 | 45.24087 | -49.02280 | 38272 ft | 527 kts | 72° |
| 2026-04-25 18:05 | 45.26456 | -48.92449 | 38282 ft | 527 kts | 72° |
| 2026-04-25 18:06 | 45.28818 | -48.82604 | 38276 ft | 527 kts | 72° |
| 2026-04-25 18:06 | 45.31176 | -48.72734 | 38280 ft | 528 kts | 72° |
| 2026-04-25 18:07 | 45.33528 | -48.62844 | 38276 ft | 528 kts | 72° |
| 2026-04-25 18:07 | 45.35872 | -48.52941 | 38293 ft | 529 kts | 73° |
| 2026-04-25 18:08 | 45.38212 | -48.43007 | 38299 ft | 530 kts | 73° |
| 2026-04-25 18:08 | 45.40541 | -48.33081 | 38291 ft | 529 kts | 73° |
| 2026-04-25 18:09 | 45.42861 | -48.23150 | 38306 ft | 528 kts | 72° |
| 2026-04-25 18:09 | 45.45191 | -48.13228 | 38303 ft | 529 kts | 73° |
| 2026-04-25 18:10 | 45.47510 | -48.03279 | 38306 ft | 530 kts | 73° |
| 2026-04-25 18:10 | 45.49816 | -47.93286 | 38310 ft | 531 kts | 73° |
| 2026-04-25 18:11 | 45.52107 | -47.83299 | 38327 ft | 530 kts | 73° |
| 2026-04-25 18:11 | 45.54388 | -47.73305 | 38315 ft | 529 kts | 73° |
| 2026-04-25 18:12 | 45.56658 | -47.63306 | 38327 ft | 530 kts | 74° |
| 2026-04-25 18:12 | 45.58919 | -47.53306 | 38342 ft | 530 kts | 74° |
| 2026-04-25 18:13 | 45.61172 | -47.43296 | 38342 ft | 530 kts | 74° |
| 2026-04-25 18:13 | 45.63403 | -47.33338 | 38342 ft | 530 kts | 75° |
| 2026-04-25 18:14 | 45.66757 | -47.18280 | 38353 ft | 530 kts | 75° |
| 2026-04-25 18:14 | 45.68983 | -47.08233 | 38356 ft | 530 kts | 74° |
| 2026-04-25 18:15 | 45.71195 | -46.98194 | 38358 ft | 529 kts | 74° |
| 2026-04-25 18:15 | 45.73397 | -46.88152 | 38369 ft | 529 kts | 75° |
| 2026-04-25 18:16 | 45.75592 | -46.78101 | 38362 ft | 528 kts | 75° |
| 2026-04-25 18:17 | 45.78854 | -46.63046 | 38381 ft | 528 kts | 76° |
| 2026-04-25 18:17 | 45.81004 | -46.53003 | 38383 ft | 527 kts | 76° |
| 2026-04-25 18:18 | 45.83153 | -46.42955 | 38392 ft | 527 kts | 76° |
| 2026-04-25 18:18 | 45.85298 | -46.32907 | 38390 ft | 527 kts | 76° |
| 2026-04-25 18:19 | 45.87434 | -46.22852 | 38395 ft | 527 kts | 76° |
| 2026-04-25 18:19 | 45.89544 | -46.12780 | 38394 ft | 526 kts | 76° |
| 2026-04-25 18:20 | 45.91648 | -46.02716 | 38413 ft | 526 kts | 76° |
| 2026-04-25 18:20 | 45.93754 | -45.92643 | 38420 ft | 526 kts | 76° |
| 2026-04-25 18:21 | 45.95864 | -45.82575 | 38423 ft | 526 kts | 76° |
| 2026-04-25 18:21 | 45.97971 | -45.72496 | 38427 ft | 526 kts | 76° |
| 2026-04-25 18:22 | 46.00056 | -45.62412 | 38436 ft | 526 kts | 76° |
| 2026-04-25 18:22 | 46.01881 | -45.52257 | 38440 ft | 520 kts | 88° |
| 2026-04-25 18:22 | 46.01912 | -45.47102 | 38446 ft | 514 kts | 99° |
| 2026-04-25 18:23 | 46.01674 | -45.41974 | 38446 ft | 517 kts | 91° |
| 2026-04-25 18:23 | 46.02731 | -45.31681 | 38451 ft | 524 kts | 79° |
| 2026-04-25 18:24 | 46.04726 | -45.21588 | 38457 ft | 525 kts | 75° |
| 2026-04-25 18:24 | 46.06881 | -45.11533 | 38461 ft | 525 kts | 76° |
| 2026-04-25 18:25 | 46.08968 | -45.01436 | 38474 ft | 526 kts | 77° |
| 2026-04-25 18:25 | 46.10993 | -44.91323 | 38471 ft | 526 kts | 77° |
| 2026-04-25 18:26 | 46.12996 | -44.81189 | 38478 ft | 525 kts | 77° |
| 2026-04-25 18:26 | 46.14986 | -44.71073 | 38489 ft | 525 kts | 77° |
| 2026-04-25 18:27 | 46.16969 | -44.60957 | 38490 ft | 525 kts | 77° |
| 2026-04-25 18:27 | 46.18949 | -44.50807 | 38493 ft | 525 kts | 77° |
| 2026-04-25 18:28 | 46.20916 | -44.40674 | 38498 ft | 525 kts | 77° |
| 2026-04-25 18:28 | 46.22877 | -44.30517 | 38502 ft | 525 kts | 77° |
| 2026-04-25 18:29 | 46.25784 | -44.15359 | 38494 ft | 525 kts | 78° |
| 2026-04-25 18:30 | 46.29647 | -43.95025 | 38515 ft | 525 kts | 78° |
| 2026-04-25 18:30 | 46.31568 | -43.84814 | 38515 ft | 525 kts | 78° |
| 2026-04-25 18:31 | 46.33455 | -43.74696 | 38507 ft | 525 kts | 78° |
| 2026-04-25 18:31 | 46.35341 | -43.64526 | 38518 ft | 524 kts | 79° |
| 2026-04-25 18:32 | 46.37226 | -43.54335 | 38525 ft | 524 kts | 79° |
| 2026-04-25 18:32 | 46.39103 | -43.44138 | 38525 ft | 524 kts | 79° |
| 2026-04-25 18:33 | 46.40975 | -43.33923 | 38526 ft | 524 kts | 79° |
| 2026-04-25 18:33 | 46.42826 | -43.23772 | 38526 ft | 524 kts | 79° |
| 2026-04-25 18:34 | 46.44681 | -43.13544 | 38526 ft | 525 kts | 79° |
| 2026-04-25 18:34 | 46.46532 | -43.03276 | 38534 ft | 527 kts | 79° |
| 2026-04-25 18:35 | 46.48377 | -42.92984 | 38540 ft | 527 kts | 79° |
| 2026-04-25 18:35 | 46.50212 | -42.82695 | 38540 ft | 527 kts | 79° |
| 2026-04-25 18:36 | 46.52025 | -42.72468 | 38538 ft | 527 kts | 80° |
| 2026-04-25 18:36 | 46.53842 | -42.62163 | 38540 ft | 527 kts | 80° |
| 2026-04-25 18:37 | 46.55664 | -42.51842 | 38543 ft | 527 kts | 79° |
| 2026-04-25 18:37 | 46.57471 | -42.41553 | 38539 ft | 526 kts | 80° |
| 2026-04-25 18:38 | 46.59264 | -42.31228 | 38556 ft | 526 kts | 80° |
| 2026-04-25 18:38 | 46.61028 | -42.20982 | 38537 ft | 526 kts | 80° |
| 2026-04-25 18:39 | 46.62795 | -42.10650 | 38548 ft | 528 kts | 80° |
| 2026-04-25 18:39 | 46.64560 | -42.00282 | 38550 ft | 527 kts | 80° |
| 2026-04-25 18:40 | 46.66313 | -41.89919 | 38551 ft | 527 kts | 80° |
| 2026-04-25 18:40 | 46.68047 | -41.79611 | 38553 ft | 527 kts | 80° |
| 2026-04-25 18:41 | 46.69782 | -41.69230 | 38553 ft | 527 kts | 81° |
| 2026-04-25 18:41 | 46.71501 | -41.58888 | 38556 ft | 527 kts | 81° |
| 2026-04-25 18:42 | 46.72653 | -41.51922 | 38557 ft | 527 kts | 81° |
| 2026-04-25 18:42 | 46.74908 | -41.38194 | 38556 ft | 526 kts | 81° |
| 2026-04-25 18:43 | 46.76604 | -41.27797 | 38556 ft | 526 kts | 81° |
| 2026-04-25 18:43 | 46.78290 | -41.17397 | 38566 ft | 528 kts | 81° |
| 2026-04-25 18:44 | 46.79970 | -41.06966 | 38567 ft | 528 kts | 81° |
| 2026-04-25 18:44 | 46.81643 | -40.96518 | 38566 ft | 528 kts | 81° |
| 2026-04-25 18:45 | 46.83303 | -40.86086 | 38571 ft | 528 kts | 81° |
| 2026-04-25 18:45 | 46.84956 | -40.75632 | 38567 ft | 528 kts | 82° |
| 2026-04-25 18:46 | 46.86587 | -40.65248 | 38578 ft | 528 kts | 82° |
| 2026-04-25 18:46 | 46.88219 | -40.54796 | 38576 ft | 528 kts | 82° |
| 2026-04-25 18:47 | 46.89843 | -40.44322 | 38586 ft | 528 kts | 82° |
| 2026-04-25 18:47 | 46.91455 | -40.33863 | 38584 ft | 528 kts | 82° |
| 2026-04-25 18:48 | 46.93058 | -40.23392 | 38574 ft | 528 kts | 82° |
| 2026-04-25 18:48 | 46.94655 | -40.12883 | 38586 ft | 529 kts | 82° |
| 2026-04-25 18:49 | 46.96238 | -40.02382 | 38591 ft | 529 kts | 82° |
| 2026-04-25 18:49 | 46.97055 | -39.91835 | 38596 ft | 522 kts | 91° |
| 2026-04-25 18:50 | 46.97537 | -39.81174 | 38594 ft | 522 kts | 92° |
| 2026-04-25 18:50 | 46.97959 | -39.70637 | 38600 ft | 522 kts | 92° |
| 2026-04-25 18:51 | 46.98239 | -39.63546 | 38601 ft | 522 kts | 92° |
| 2026-04-25 18:51 | 46.98796 | -39.49432 | 38597 ft | 521 kts | 92° |
| 2026-04-25 18:52 | 46.99207 | -39.38819 | 38609 ft | 523 kts | 92° |
| 2026-04-25 18:52 | 46.99609 | -39.28194 | 38607 ft | 523 kts | 92° |
| 2026-04-25 18:53 | 47.00002 | -39.17556 | 38610 ft | 523 kts | 93° |
| 2026-04-25 18:53 | 47.00382 | -39.06981 | 38612 ft | 523 kts | 93° |
| 2026-04-25 18:54 | 47.00936 | -38.91039 | 38617 ft | 524 kts | 93° |
| 2026-04-25 18:55 | 47.01295 | -38.80372 | 38615 ft | 524 kts | 93° |
| 2026-04-25 18:55 | 47.01645 | -38.69694 | 38618 ft | 526 kts | 93° |
| 2026-04-25 18:56 | 47.01982 | -38.59009 | 38613 ft | 529 kts | 93° |
| 2026-04-25 18:56 | 47.02314 | -38.48244 | 38618 ft | 529 kts | 93° |
| 2026-04-25 18:57 | 47.02638 | -38.37429 | 38637 ft | 532 kts | 93° |
| 2026-04-25 18:57 | 47.02947 | -38.26565 | 38638 ft | 534 kts | 93° |
| 2026-04-25 18:58 | 47.03250 | -38.15703 | 38635 ft | 533 kts | 93° |
| 2026-04-25 18:58 | 47.03685 | -37.99493 | 38603 ft | 533 kts | 93° |
| 2026-04-25 18:59 | 47.04228 | -37.77931 | 38645 ft | 527 kts | 93° |
| 2026-04-25 19:00 | 47.04603 | -37.61793 | 38646 ft | 527 kts | 94° |
| 2026-04-25 19:01 | 47.04957 | -37.45769 | 38642 ft | 527 kts | 94° |
| 2026-04-25 19:01 | 47.05182 | -37.35017 | 38647 ft | 527 kts | 94° |
| 2026-04-25 19:02 | 47.05500 | -37.18928 | 38665 ft | 527 kts | 94° |
| 2026-04-25 19:03 | 47.05731 | -37.06455 | 38659 ft | 527 kts | 94° |
| 2026-04-25 19:03 | 47.05978 | -36.92148 | 38665 ft | 528 kts | 93° |
| 2026-04-25 19:04 | 47.06236 | -36.76000 | 38677 ft | 528 kts | 93° |
| 2026-04-25 19:05 | 47.06546 | -36.54539 | 38687 ft | 528 kts | 94° |
| 2026-04-25 19:06 | 47.06686 | -36.43791 | 38687 ft | 526 kts | 94° |
| 2026-04-25 19:06 | 47.06858 | -36.29566 | 38701 ft | 522 kts | 94° |
| 2026-04-25 19:07 | 47.07033 | -36.13609 | 38709 ft | 522 kts | 94° |
| 2026-04-25 19:08 | 47.07180 | -35.97621 | 38721 ft | 522 kts | 94° |
| 2026-04-25 19:09 | 47.07329 | -35.78175 | 38733 ft | 519 kts | 94° |
| 2026-04-25 19:10 | 47.07435 | -35.60557 | 38741 ft | 519 kts | 94° |
| 2026-04-25 19:10 | 47.07486 | -35.49973 | 38749 ft | 519 kts | 94° |
| 2026-04-25 19:11 | 47.07526 | -35.39373 | 38758 ft | 519 kts | 94° |
| 2026-04-25 19:11 | 47.07544 | -35.28849 | 38763 ft | 519 kts | 95° |
| 2026-04-25 19:12 | 47.07552 | -35.18291 | 38750 ft | 519 kts | 95° |
| 2026-04-25 19:12 | 47.07554 | -35.07693 | 38763 ft | 519 kts | 95° |
| 2026-04-25 19:13 | 47.07547 | -34.97092 | 38773 ft | 519 kts | 95° |
| 2026-04-25 19:13 | 47.07534 | -34.86468 | 38787 ft | 521 kts | 95° |
| 2026-04-25 19:14 | 47.07516 | -34.75852 | 38798 ft | 521 kts | 95° |
| 2026-04-25 19:14 | 47.07488 | -34.65295 | 38798 ft | 521 kts | 95° |
| 2026-04-25 19:15 | 47.07452 | -34.54707 | 38811 ft | 521 kts | 95° |
| 2026-04-25 19:15 | 47.07404 | -34.44071 | 38799 ft | 520 kts | 95° |
| 2026-04-25 19:16 | 47.07348 | -34.33449 | 38828 ft | 520 kts | 95° |
| 2026-04-25 19:16 | 47.07282 | -34.22864 | 38825 ft | 519 kts | 95° |
| 2026-04-25 19:17 | 47.07206 | -34.12357 | 38830 ft | 519 kts | 95° |
| 2026-04-25 19:17 | 47.07120 | -34.01760 | 38842 ft | 519 kts | 95° |
| 2026-04-25 19:18 | 47.07024 | -33.91139 | 38861 ft | 520 kts | 95° |
| 2026-04-25 19:18 | 47.06919 | -33.80543 | 38858 ft | 520 kts | 95° |
| 2026-04-25 19:19 | 47.06804 | -33.70009 | 38863 ft | 520 kts | 95° |
| 2026-04-25 19:19 | 47.06699 | -33.59413 | 38865 ft | 519 kts | 94° |
| 2026-04-25 19:20 | 47.06590 | -33.48831 | 38873 ft | 519 kts | 95° |
| 2026-04-25 19:20 | 47.06455 | -33.38274 | 38884 ft | 517 kts | 95° |
| 2026-04-25 19:21 | 47.06303 | -33.27720 | 38889 ft | 517 kts | 95° |
| 2026-04-25 19:21 | 47.06053 | -33.11912 | 38901 ft | 517 kts | 95° |
| 2026-04-25 19:22 | 47.05876 | -33.01467 | 38889 ft | 516 kts | 95° |
| 2026-04-25 19:23 | 47.05593 | -32.85712 | 38911 ft | 514 kts | 95° |
| 2026-04-25 19:23 | 47.05289 | -32.70017 | 38923 ft | 513 kts | 95° |
| 2026-04-25 19:24 | 47.05076 | -32.59634 | 38924 ft | 513 kts | 95° |
| 2026-04-25 19:25 | 47.04619 | -32.38712 | 38934 ft | 512 kts | 95° |
| 2026-04-25 19:25 | 47.04377 | -32.28302 | 38947 ft | 511 kts | 95° |
| 2026-04-25 19:26 | 47.04126 | -32.17880 | 38956 ft | 511 kts | 95° |
| 2026-04-25 19:26 | 47.03866 | -32.07527 | 38943 ft | 511 kts | 95° |
| 2026-04-25 19:27 | 47.03643 | -31.98873 | 38950 ft | 511 kts | 95° |
| 2026-04-25 19:27 | 47.03317 | -31.86705 | 38967 ft | 510 kts | 95° |
| 2026-04-25 19:28 | 47.03031 | -31.76391 | 38980 ft | 510 kts | 95° |
| 2026-04-25 19:28 | 47.02734 | -31.66023 | 38980 ft | 510 kts | 95° |
| 2026-04-25 19:29 | 47.02426 | -31.55637 | 38978 ft | 510 kts | 95° |
| 2026-04-25 19:29 | 47.02110 | -31.45262 | 38993 ft | 509 kts | 95° |
| 2026-04-25 19:30 | 47.01787 | -31.34946 | 39002 ft | 509 kts | 95° |
| 2026-04-25 19:30 | 47.01453 | -31.24590 | 38999 ft | 509 kts | 96° |
| 2026-04-25 19:31 | 47.01109 | -31.14251 | 39011 ft | 509 kts | 96° |
| 2026-04-25 19:31 | 47.00756 | -31.03888 | 39012 ft | 509 kts | 96° |
| 2026-04-25 19:32 | 47.00393 | -30.93534 | 39017 ft | 509 kts | 96° |
| 2026-04-25 19:32 | 47.00079 | -30.84926 | 39024 ft | 509 kts | 96° |
| 2026-04-25 19:33 | 46.99637 | -30.72917 | 39032 ft | 508 kts | 96° |
| 2026-04-25 19:33 | 46.99250 | -30.62580 | 39031 ft | 508 kts | 96° |
| 2026-04-25 19:34 | 46.98852 | -30.52226 | 39037 ft | 508 kts | 96° |
| 2026-04-25 19:34 | 46.98443 | -30.41889 | 39037 ft | 508 kts | 96° |
| 2026-04-25 19:35 | 46.98026 | -30.31574 | 39048 ft | 508 kts | 96° |
| 2026-04-25 19:35 | 46.97598 | -30.21226 | 39048 ft | 508 kts | 96° |
| 2026-04-25 19:36 | 46.97165 | -30.10962 | 39045 ft | 509 kts | 96° |
| 2026-04-25 19:36 | 46.96770 | -30.00619 | 39053 ft | 510 kts | 92° |
| 2026-04-25 19:37 | 46.97069 | -29.90211 | 39058 ft | 512 kts | 89° |
| 2026-04-25 19:37 | 46.97506 | -29.79818 | 39061 ft | 512 kts | 89° |
| 2026-04-25 19:38 | 46.97954 | -29.69404 | 39061 ft | 512 kts | 89° |
| 2026-04-25 19:38 | 46.98382 | -29.59011 | 39070 ft | 512 kts | 89° |
| 2026-04-25 19:39 | 46.98795 | -29.48602 | 39068 ft | 512 kts | 89° |
| 2026-04-25 19:39 | 46.99197 | -29.38216 | 39075 ft | 512 kts | 89° |
| 2026-04-25 19:40 | 46.99590 | -29.27804 | 39073 ft | 512 kts | 89° |
| 2026-04-25 19:40 | 46.99972 | -29.17447 | 39084 ft | 511 kts | 89° |
| 2026-04-25 19:41 | 47.00346 | -29.07051 | 39087 ft | 511 kts | 89° |
| 2026-04-25 19:41 | 47.00649 | -28.98408 | 39088 ft | 511 kts | 89° |
| 2026-04-25 19:42 | 47.01065 | -28.86247 | 39094 ft | 511 kts | 89° |
| 2026-04-25 19:42 | 47.01412 | -28.75837 | 39095 ft | 511 kts | 89° |
| 2026-04-25 19:43 | 47.01748 | -28.65424 | 39097 ft | 511 kts | 89° |
| 2026-04-25 19:43 | 47.02075 | -28.55011 | 39097 ft | 512 kts | 89° |
| 2026-04-25 19:44 | 47.02393 | -28.44602 | 39102 ft | 512 kts | 89° |
| 2026-04-25 19:44 | 47.02700 | -28.34238 | 39105 ft | 512 kts | 89° |
| 2026-04-25 19:45 | 47.02998 | -28.23817 | 39108 ft | 512 kts | 89° |
| 2026-04-25 19:45 | 47.03288 | -28.13387 | 39110 ft | 513 kts | 88° |
| 2026-04-25 19:46 | 47.03570 | -28.02913 | 39108 ft | 515 kts | 89° |
| 2026-04-25 19:46 | 47.03840 | -27.92495 | 39112 ft | 515 kts | 89° |
| 2026-04-25 19:47 | 47.04104 | -27.82003 | 39111 ft | 515 kts | 89° |
| 2026-04-25 19:47 | 47.04358 | -27.71531 | 39115 ft | 515 kts | 88° |
| 2026-04-25 19:48 | 47.04603 | -27.61030 | 39121 ft | 515 kts | 89° |
| 2026-04-25 19:48 | 47.04837 | -27.50530 | 39118 ft | 516 kts | 89° |
| 2026-04-25 19:49 | 47.04987 | -27.43554 | 39119 ft | 516 kts | 89° |
| 2026-04-25 19:49 | 47.05276 | -27.29519 | 39122 ft | 515 kts | 89° |
| 2026-04-25 19:50 | 47.05579 | -27.13851 | 39124 ft | 514 kts | 88° |
| 2026-04-25 19:51 | 47.05770 | -27.03355 | 39123 ft | 514 kts | 88° |
| 2026-04-25 19:51 | 47.05951 | -26.92888 | 39124 ft | 514 kts | 89° |
| 2026-04-25 19:52 | 47.06122 | -26.82387 | 39130 ft | 514 kts | 89° |
| 2026-04-25 19:52 | 47.06283 | -26.71998 | 39128 ft | 513 kts | 89° |
| 2026-04-25 19:53 | 47.06435 | -26.61551 | 39121 ft | 512 kts | 89° |
| 2026-04-25 19:53 | 47.06574 | -26.51103 | 39124 ft | 512 kts | 89° |
| 2026-04-25 19:54 | 47.06702 | -26.40657 | 39128 ft | 512 kts | 89° |
| 2026-04-25 19:54 | 47.06824 | -26.30228 | 39126 ft | 510 kts | 89° |
| 2026-04-25 19:55 | 47.06938 | -26.19900 | 39127 ft | 509 kts | 89° |
| 2026-04-25 19:55 | 47.07043 | -26.09514 | 39130 ft | 509 kts | 89° |
| 2026-04-25 19:56 | 47.07137 | -25.99141 | 39129 ft | 509 kts | 89° |
| 2026-04-25 19:56 | 47.07220 | -25.88777 | 39129 ft | 509 kts | 89° |
| 2026-04-25 19:57 | 47.07290 | -25.78448 | 39127 ft | 509 kts | 89° |
| 2026-04-25 19:57 | 47.07355 | -25.68067 | 39127 ft | 509 kts | 89° |
| 2026-04-25 19:58 | 47.07411 | -25.57696 | 39129 ft | 509 kts | 89° |
| 2026-04-25 19:58 | 47.07460 | -25.47322 | 39136 ft | 509 kts | 89° |
| 2026-04-25 19:59 | 47.07500 | -25.36944 | 39128 ft | 508 kts | 89° |
| 2026-04-25 19:59 | 47.07529 | -25.26665 | 39130 ft | 507 kts | 89° |
| 2026-04-25 20:00 | 47.07546 | -25.16314 | 39129 ft | 507 kts | 90° |
| 2026-04-25 20:00 | 47.07549 | -25.05971 | 39132 ft | 507 kts | 90° |
| 2026-04-25 20:01 | 47.07545 | -24.90430 | 39127 ft | 508 kts | 90° |
| 2026-04-25 20:01 | 47.07533 | -24.80149 | 39127 ft | 508 kts | 90° |
| 2026-04-25 20:02 | 47.07514 | -24.69799 | 39127 ft | 508 kts | 90° |
| 2026-04-25 20:02 | 47.07486 | -24.59452 | 39127 ft | 508 kts | 90° |
| 2026-04-25 20:03 | 47.07448 | -24.49083 | 39127 ft | 508 kts | 90° |
| 2026-04-25 20:03 | 47.07399 | -24.38784 | 39126 ft | 508 kts | 90° |
| 2026-04-25 20:04 | 47.07339 | -24.28421 | 39127 ft | 509 kts | 90° |
| 2026-04-25 20:04 | 47.07270 | -24.18032 | 39121 ft | 509 kts | 90° |
| 2026-04-25 20:05 | 47.07191 | -24.07662 | 39121 ft | 509 kts | 90° |
| 2026-04-25 20:05 | 47.07104 | -23.97286 | 39118 ft | 508 kts | 90° |
| 2026-04-25 20:06 | 47.07011 | -23.87022 | 39121 ft | 508 kts | 90° |
| 2026-04-25 20:06 | 47.06911 | -23.76622 | 39119 ft | 508 kts | 90° |
| 2026-04-25 20:07 | 47.06798 | -23.66248 | 39119 ft | 508 kts | 91° |
| 2026-04-25 20:07 | 47.06673 | -23.55889 | 39118 ft | 508 kts | 91° |
| 2026-04-25 20:08 | 47.06539 | -23.45605 | 39110 ft | 508 kts | 91° |
| 2026-04-25 20:08 | 47.06395 | -23.35238 | 39113 ft | 508 kts | 91° |
| 2026-04-25 20:09 | 47.06242 | -23.24882 | 39113 ft | 508 kts | 91° |
| 2026-04-25 20:09 | 47.06081 | -23.14579 | 39114 ft | 509 kts | 91° |
| 2026-04-25 20:10 | 47.05909 | -23.04204 | 39110 ft | 509 kts | 91° |
| 2026-04-25 20:10 | 47.05727 | -22.93809 | 39110 ft | 510 kts | 91° |
| 2026-04-25 20:11 | 47.05535 | -22.83415 | 39110 ft | 510 kts | 91° |
| 2026-04-25 20:11 | 47.05335 | -22.73037 | 39109 ft | 510 kts | 91° |
| 2026-04-25 20:12 | 47.05127 | -22.62713 | 39105 ft | 510 kts | 92° |
| 2026-04-25 20:12 | 47.04981 | -22.55753 | 39102 ft | 510 kts | 92° |
| 2026-04-25 20:13 | 47.04679 | -22.41920 | 39105 ft | 511 kts | 92° |
| 2026-04-25 20:13 | 47.04523 | -22.35078 | 39108 ft | 511 kts | 92° |
| 2026-04-25 20:14 | 47.04278 | -22.24675 | 39100 ft | 511 kts | 92° |
| 2026-04-25 20:14 | 47.04024 | -22.14273 | 39094 ft | 511 kts | 92° |
| 2026-04-25 20:15 | 47.03761 | -22.03865 | 39097 ft | 511 kts | 92° |
| 2026-04-25 20:15 | 47.03490 | -21.93529 | 39094 ft | 511 kts | 92° |
| 2026-04-25 20:16 | 47.03208 | -21.83129 | 39090 ft | 511 kts | 92° |
| 2026-04-25 20:16 | 47.02916 | -21.72737 | 39089 ft | 511 kts | 93° |
| 2026-04-25 20:17 | 47.02615 | -21.62328 | 39086 ft | 511 kts | 93° |
| 2026-04-25 20:17 | 47.02304 | -21.51922 | 39081 ft | 511 kts | 93° |
| 2026-04-25 20:18 | 47.01986 | -21.41583 | 39083 ft | 513 kts | 93° |
| 2026-04-25 20:18 | 47.01655 | -21.31141 | 39083 ft | 513 kts | 93° |
| 2026-04-25 20:19 | 47.01314 | -21.20686 | 39083 ft | 513 kts | 93° |
| 2026-04-25 20:19 | 47.00964 | -21.10237 | 39083 ft | 513 kts | 93° |
| 2026-04-25 20:20 | 47.00605 | -20.99802 | 39083 ft | 513 kts | 93° |
| 2026-04-25 20:20 | 47.00239 | -20.89436 | 39081 ft | 513 kts | 94° |
| 2026-04-25 20:21 | 46.99861 | -20.79016 | 39083 ft | 513 kts | 94° |
| 2026-04-25 20:21 | 46.99474 | -20.68588 | 39083 ft | 513 kts | 94° |
| 2026-04-25 20:22 | 46.99212 | -20.61677 | 39081 ft | 513 kts | 94° |
| 2026-04-25 20:22 | 46.98660 | -20.47718 | 39081 ft | 513 kts | 94° |
| 2026-04-25 20:23 | 46.98238 | -20.37401 | 39077 ft | 512 kts | 94° |
| 2026-04-25 20:23 | 46.97810 | -20.26992 | 39078 ft | 511 kts | 94° |
| 2026-04-25 20:24 | 46.97388 | -20.16602 | 39075 ft | 511 kts | 94° |
| 2026-04-25 20:24 | 46.96955 | -20.06193 | 39075 ft | 511 kts | 94° |
| 2026-04-25 20:25 | 46.96778 | -19.95875 | 39075 ft | 511 kts | 89° |
| 2026-04-25 20:25 | 46.96958 | -19.85485 | 39078 ft | 510 kts | 89° |
| 2026-04-25 20:26 | 46.97178 | -19.75092 | 39078 ft | 510 kts | 88° |
| 2026-04-25 20:26 | 46.97387 | -19.64714 | 39099 ft | 511 kts | 89° |
| 2026-04-25 20:27 | 46.97486 | -19.59501 | 39232 ft | 510 kts | 89° |
| 2026-04-25 20:27 | 46.97579 | -19.54393 | 39434 ft | 508 kts | 89° |
| 2026-04-25 20:27 | 46.97670 | -19.49223 | 39592 ft | 508 kts | 89° |
| 2026-04-25 20:27 | 46.97758 | -19.44065 | 39694 ft | 508 kts | 89° |
| 2026-04-25 20:28 | 46.97928 | -19.33679 | 39860 ft | 510 kts | 89° |
| 2026-04-25 20:28 | 46.98010 | -19.28484 | 39995 ft | 510 kts | 89° |
| 2026-04-25 20:28 | 46.98089 | -19.23307 | 40085 ft | 510 kts | 89° |
| 2026-04-25 20:29 | 46.98242 | -19.12907 | 40078 ft | 510 kts | 90° |
| 2026-04-25 20:29 | 46.98384 | -19.02604 | 40088 ft | 509 kts | 90° |
| 2026-04-25 20:30 | 46.98517 | -18.92240 | 40096 ft | 509 kts | 90° |
| 2026-04-25 20:30 | 46.98640 | -18.81885 | 40095 ft | 509 kts | 90° |
| 2026-04-25 20:31 | 46.98755 | -18.71518 | 40096 ft | 509 kts | 90° |
| 2026-04-25 20:31 | 46.98860 | -18.61168 | 40100 ft | 509 kts | 90° |
| 2026-04-25 20:32 | 46.98955 | -18.50874 | 40103 ft | 509 kts | 90° |
| 2026-04-25 20:32 | 46.99041 | -18.40516 | 40096 ft | 509 kts | 90° |
| 2026-04-25 20:33 | 46.99119 | -18.30170 | 40095 ft | 509 kts | 91° |
| 2026-04-25 20:33 | 46.99165 | -18.23304 | 40112 ft | 509 kts | 91° |
| 2026-04-25 20:34 | 46.99245 | -18.09505 | 40118 ft | 509 kts | 91° |
| 2026-04-25 20:34 | 46.99294 | -17.99155 | 40112 ft | 509 kts | 91° |
| 2026-04-25 20:35 | 46.99334 | -17.88786 | 40115 ft | 509 kts | 91° |
| 2026-04-25 20:35 | 46.99365 | -17.78397 | 40127 ft | 509 kts | 91° |
| 2026-04-25 20:36 | 46.99385 | -17.68104 | 40127 ft | 509 kts | 91° |
| 2026-04-25 20:36 | 46.99397 | -17.57748 | 40135 ft | 509 kts | 91° |
| 2026-04-25 20:37 | 46.99399 | -17.47359 | 40132 ft | 509 kts | 91° |
| 2026-04-25 20:37 | 46.99393 | -17.36987 | 40141 ft | 509 kts | 92° |
| 2026-04-25 20:38 | 46.99376 | -17.26623 | 40147 ft | 509 kts | 92° |
| 2026-04-25 20:38 | 46.99351 | -17.16247 | 40149 ft | 509 kts | 92° |
| 2026-04-25 20:39 | 46.99316 | -17.05886 | 40155 ft | 509 kts | 92° |
| 2026-04-25 20:39 | 46.99287 | -16.98951 | 40154 ft | 509 kts | 92° |
| 2026-04-25 20:40 | 46.99218 | -16.85153 | 40163 ft | 509 kts | 92° |
| 2026-04-25 20:40 | 46.99155 | -16.74791 | 40162 ft | 509 kts | 92° |
| 2026-04-25 20:41 | 46.99082 | -16.64409 | 40163 ft | 510 kts | 92° |
| 2026-04-25 20:41 | 46.99001 | -16.54086 | 40166 ft | 510 kts | 93° |
| 2026-04-25 20:42 | 46.98910 | -16.43698 | 40176 ft | 510 kts | 93° |
| 2026-04-25 20:42 | 46.98809 | -16.33314 | 40175 ft | 510 kts | 93° |
| 2026-04-25 20:43 | 46.98699 | -16.22917 | 40182 ft | 510 kts | 93° |
| 2026-04-25 20:43 | 46.98580 | -16.12536 | 40192 ft | 510 kts | 93° |
| 2026-04-25 20:44 | 46.98451 | -16.02157 | 40191 ft | 510 kts | 93° |
| 2026-04-25 20:44 | 46.98312 | -15.91764 | 40185 ft | 510 kts | 93° |
| 2026-04-25 20:45 | 46.98164 | -15.81364 | 40187 ft | 510 kts | 93° |
| 2026-04-25 20:45 | 46.98007 | -15.70968 | 40198 ft | 510 kts | 94° |
| 2026-04-25 20:46 | 46.97841 | -15.60606 | 40202 ft | 510 kts | 94° |
| 2026-04-25 20:46 | 46.97666 | -15.50222 | 40202 ft | 510 kts | 94° |
| 2026-04-25 20:47 | 46.97480 | -15.39846 | 40210 ft | 510 kts | 94° |
| 2026-04-25 20:47 | 46.97286 | -15.29463 | 40197 ft | 510 kts | 94° |
| 2026-04-25 20:48 | 46.97083 | -15.19117 | 40213 ft | 508 kts | 94° |
| 2026-04-25 20:48 | 46.96871 | -15.08782 | 40213 ft | 508 kts | 94° |
| 2026-04-25 20:49 | 46.96687 | -15.00189 | 40219 ft | 508 kts | 94° |
| 2026-04-25 20:49 | 46.96726 | -14.89843 | 40219 ft | 509 kts | 90° |
| 2026-04-25 20:50 | 46.97109 | -14.79487 | 40222 ft | 509 kts | 89° |
| 2026-04-25 20:50 | 46.97457 | -14.69139 | 40222 ft | 508 kts | 90° |
| 2026-04-25 20:51 | 46.97730 | -14.58812 | 40222 ft | 508 kts | 90° |
| 2026-04-25 20:51 | 46.97967 | -14.48469 | 40228 ft | 508 kts | 90° |
| 2026-04-25 20:52 | 46.98155 | -14.39881 | 40227 ft | 508 kts | 90° |
| 2026-04-25 20:52 | 46.98412 | -14.27787 | 40230 ft | 508 kts | 91° |
| 2026-04-25 20:53 | 46.98623 | -14.17462 | 40235 ft | 508 kts | 91° |
| 2026-04-25 20:53 | 46.98825 | -14.07132 | 40235 ft | 508 kts | 91° |
| 2026-04-25 20:54 | 46.99018 | -13.96793 | 40235 ft | 507 kts | 91° |
| 2026-04-25 20:54 | 46.99201 | -13.86492 | 40238 ft | 506 kts | 91° |
| 2026-04-25 20:55 | 46.99375 | -13.76171 | 40241 ft | 506 kts | 91° |
| 2026-04-25 20:55 | 46.99540 | -13.65860 | 40243 ft | 506 kts | 91° |
| 2026-04-25 20:56 | 46.99695 | -13.55560 | 40242 ft | 507 kts | 91° |
| 2026-04-25 20:56 | 46.99841 | -13.45238 | 40246 ft | 507 kts | 91° |
| 2026-04-25 20:57 | 46.99978 | -13.34914 | 40243 ft | 507 kts | 91° |
| 2026-04-25 20:57 | 47.00106 | -13.24593 | 40244 ft | 507 kts | 91° |
| 2026-04-25 20:58 | 47.00224 | -13.14289 | 40244 ft | 506 kts | 91° |
| 2026-04-25 20:58 | 47.00333 | -13.03982 | 40253 ft | 506 kts | 91° |
| 2026-04-25 20:59 | 47.00433 | -12.93695 | 40250 ft | 505 kts | 91° |
| 2026-04-25 20:59 | 47.00523 | -12.83392 | 40252 ft | 505 kts | 91° |
| 2026-04-25 21:00 | 47.00592 | -12.74825 | 40249 ft | 505 kts | 91° |
| 2026-04-25 21:01 | 47.00709 | -12.57635 | 40254 ft | 506 kts | 91° |
| 2026-04-25 21:01 | 47.00767 | -12.47347 | 40258 ft | 505 kts | 92° |
| 2026-04-25 21:02 | 47.00816 | -12.37051 | 40241 ft | 505 kts | 91° |
| 2026-04-25 21:02 | 47.00856 | -12.26763 | 40250 ft | 505 kts | 92° |
| 2026-04-25 21:03 | 47.00886 | -12.16464 | 40248 ft | 505 kts | 92° |
| 2026-04-25 21:03 | 47.00907 | -12.06252 | 40249 ft | 505 kts | 92° |
| 2026-04-25 21:04 | 47.00919 | -11.95966 | 40243 ft | 505 kts | 92° |
| 2026-04-25 21:04 | 47.00925 | -11.85702 | 40255 ft | 504 kts | 92° |
| 2026-04-25 21:05 | 47.00920 | -11.75429 | 40262 ft | 504 kts | 92° |
| 2026-04-25 21:05 | 47.00902 | -11.65153 | 40256 ft | 504 kts | 92° |
| 2026-04-25 21:06 | 47.00876 | -11.54894 | 40235 ft | 504 kts | 92° |
| 2026-04-25 21:06 | 47.00841 | -11.44628 | 40259 ft | 504 kts | 92° |
| 2026-04-25 21:07 | 47.00799 | -11.34370 | 40255 ft | 503 kts | 92° |
| 2026-04-25 21:07 | 47.00746 | -11.24071 | 40255 ft | 507 kts | 92° |
| 2026-04-25 21:08 | 47.00684 | -11.13761 | 40257 ft | 504 kts | 92° |
| 2026-04-25 21:08 | 47.00614 | -11.03495 | 40257 ft | 505 kts | 92° |
| 2026-04-25 21:09 | 47.00490 | -10.88086 | 40255 ft | 504 kts | 92° |
| 2026-04-25 21:09 | 47.00397 | -10.77807 | 40254 ft | 504 kts | 92° |
| 2026-04-25 21:10 | 47.00294 | -10.67545 | 40255 ft | 504 kts | 92° |
| 2026-04-25 21:10 | 47.00182 | -10.57269 | 40257 ft | 504 kts | 92° |
| 2026-04-25 21:11 | 47.00061 | -10.47016 | 40254 ft | 504 kts | 93° |
| 2026-04-25 21:11 | 46.99931 | -10.36750 | 40254 ft | 504 kts | 93° |
| 2026-04-25 21:12 | 46.99791 | -10.26498 | 40255 ft | 504 kts | 93° |
| 2026-04-25 21:12 | 46.99668 | -10.17950 | 40260 ft | 504 kts | 93° |
| 2026-04-25 21:13 | 46.99484 | -10.05940 | 40257 ft | 504 kts | 93° |
| 2026-04-25 21:13 | 46.99317 | -9.95681 | 40257 ft | 504 kts | 93° |
| 2026-04-25 21:14 | 46.99141 | -9.85408 | 40253 ft | 504 kts | 93° |
| 2026-04-25 21:14 | 46.98955 | -9.75144 | 40257 ft | 504 kts | 93° |
| 2026-04-25 21:15 | 46.98761 | -9.64871 | 40257 ft | 505 kts | 93° |
| 2026-04-25 21:15 | 46.98557 | -9.54599 | 40249 ft | 504 kts | 93° |
| 2026-04-25 21:16 | 46.98344 | -9.44322 | 40248 ft | 504 kts | 93° |
| 2026-04-25 21:16 | 46.98123 | -9.34094 | 40253 ft | 502 kts | 93° |
| 2026-04-25 21:17 | 46.97893 | -9.23887 | 40257 ft | 501 kts | 93° |
| 2026-04-25 21:17 | 46.97654 | -9.13685 | 40257 ft | 501 kts | 93° |
| 2026-04-25 21:18 | 46.97407 | -9.03535 | 40246 ft | 502 kts | 93° |
| 2026-04-25 21:18 | 46.97141 | -8.92992 | 40252 ft | 502 kts | 93° |
| 2026-04-25 21:19 | 46.96889 | -8.83077 | 40247 ft | 501 kts | 92° |
| 2026-04-25 21:19 | 46.97688 | -8.72954 | 40249 ft | 503 kts | 74° |
| 2026-04-25 21:20 | 46.99410 | -8.66672 | 40249 ft | 503 kts | 61° |
| 2026-04-25 21:20 | 47.02898 | -8.59831 | 40249 ft | 502 kts | 43° |
| 2026-04-25 21:20 | 47.05537 | -8.56591 | 40246 ft | 500 kts | 33° |
| 2026-04-25 21:21 | 47.11553 | -8.51533 | 40234 ft | 501 kts | 34° |
| 2026-04-25 21:21 | 47.14158 | -8.48122 | 40251 ft | 502 kts | 50° |
| 2026-04-25 21:21 | 47.16066 | -8.43854 | 40245 ft | 502 kts | 65° |
| 2026-04-25 21:22 | 47.17967 | -8.34060 | 40253 ft | 501 kts | 88° |
| 2026-04-25 21:22 | 47.17734 | -8.28906 | 40247 ft | 497 kts | 104° |
| 2026-04-25 21:22 | 47.16778 | -8.24144 | 40244 ft | 495 kts | 112° |
| 2026-04-25 21:23 | 47.13856 | -8.14968 | 40247 ft | 495 kts | 126° |
| 2026-04-25 21:23 | 47.10215 | -8.06397 | 40235 ft | 497 kts | 118° |
| 2026-04-25 21:24 | 47.08122 | -7.96732 | 40241 ft | 501 kts | 98° |
| 2026-04-25 21:24 | 47.08425 | -7.86554 | 40241 ft | 503 kts | 77° |
| 2026-04-25 21:25 | 47.09506 | -7.81676 | 40244 ft | 503 kts | 66° |
| 2026-04-25 21:25 | 47.10966 | -7.77015 | 40240 ft | 503 kts | 63° |
| 2026-04-25 21:25 | 47.14274 | -7.67956 | 40236 ft | 504 kts | 60° |
| 2026-04-25 21:26 | 47.17671 | -7.58930 | 40235 ft | 504 kts | 60° |
| 2026-04-25 21:26 | 47.20999 | -7.49857 | 40235 ft | 504 kts | 61° |
| 2026-04-25 21:27 | 47.24282 | -7.40738 | 40238 ft | 504 kts | 61° |
| 2026-04-25 21:27 | 47.27537 | -7.31633 | 40238 ft | 502 kts | 62° |
| 2026-04-25 21:28 | 47.30785 | -7.22519 | 40238 ft | 502 kts | 62° |
| 2026-04-25 21:28 | 47.34030 | -7.13394 | 40238 ft | 502 kts | 62° |
| 2026-04-25 21:29 | 47.37261 | -7.04275 | 40237 ft | 502 kts | 62° |
| 2026-04-25 21:29 | 47.40480 | -6.95161 | 40238 ft | 501 kts | 62° |
| 2026-04-25 21:30 | 47.43693 | -6.86030 | 40238 ft | 501 kts | 62° |
| 2026-04-25 21:30 | 47.46356 | -6.78440 | 40241 ft | 501 kts | 62° |
| 2026-04-25 21:31 | 47.50101 | -6.67727 | 40233 ft | 501 kts | 62° |
| 2026-04-25 21:31 | 47.53287 | -6.58573 | 40238 ft | 499 kts | 62° |
| 2026-04-25 21:32 | 47.56446 | -6.49423 | 40235 ft | 498 kts | 62° |
| 2026-04-25 21:32 | 47.59598 | -6.40287 | 40236 ft | 498 kts | 62° |
| 2026-04-25 21:33 | 47.62762 | -6.31151 | 40235 ft | 498 kts | 62° |
| 2026-04-25 21:33 | 47.65385 | -6.23537 | 40236 ft | 498 kts | 62° |
| 2026-04-25 21:34 | 47.68525 | -6.14375 | 40232 ft | 499 kts | 62° |
| 2026-04-25 21:34 | 47.71658 | -6.05194 | 40230 ft | 499 kts | 62° |
| 2026-04-25 21:35 | 47.74782 | -5.96003 | 40230 ft | 499 kts | 62° |
| 2026-04-25 21:35 | 47.77902 | -5.86791 | 40230 ft | 499 kts | 62° |
| 2026-04-25 21:36 | 47.81014 | -5.77574 | 40228 ft | 499 kts | 62° |
| 2026-04-25 21:36 | 47.84117 | -5.68348 | 40225 ft | 499 kts | 62° |
| 2026-04-25 21:37 | 47.86694 | -5.60664 | 40223 ft | 499 kts | 62° |
| 2026-04-25 21:37 | 47.90306 | -5.49850 | 40231 ft | 499 kts | 62° |
| 2026-04-25 21:38 | 47.93384 | -5.40600 | 40219 ft | 498 kts | 62° |
| 2026-04-25 21:38 | 47.96451 | -5.31351 | 40219 ft | 497 kts | 62° |
| 2026-04-25 21:39 | 47.99514 | -5.22080 | 40222 ft | 497 kts | 62° |
| 2026-04-25 21:39 | 48.02565 | -5.12812 | 40222 ft | 497 kts | 62° |
| 2026-04-25 21:40 | 48.05605 | -5.03541 | 40216 ft | 496 kts | 62° |
| 2026-04-25 21:40 | 48.08630 | -4.94285 | 40216 ft | 495 kts | 62° |
| 2026-04-25 21:41 | 48.11647 | -4.85018 | 40208 ft | 495 kts | 62° |
| 2026-04-25 21:41 | 48.14657 | -4.75742 | 40203 ft | 496 kts | 62° |
| 2026-04-25 21:42 | 48.17664 | -4.66439 | 40209 ft | 496 kts | 62° |
| 2026-04-25 21:42 | 48.20668 | -4.57110 | 40209 ft | 496 kts | 62° |
| 2026-04-25 21:43 | 48.23660 | -4.47786 | 40211 ft | 496 kts | 62° |
| 2026-04-25 21:43 | 48.26644 | -4.38451 | 40211 ft | 496 kts | 62° |
| 2026-04-25 21:44 | 48.29624 | -4.29094 | 40214 ft | 496 kts | 62° |
| 2026-04-25 21:45 | 48.34065 | -4.15083 | 40204 ft | 494 kts | 62° |
| 2026-04-25 21:45 | 48.37005 | -4.05767 | 40208 ft | 494 kts | 62° |
| 2026-04-25 21:46 | 48.39928 | -3.96471 | 40201 ft | 495 kts | 62° |
| 2026-04-25 21:46 | 48.42863 | -3.87100 | 40202 ft | 495 kts | 62° |
| 2026-04-25 21:47 | 48.45789 | -3.77723 | 40200 ft | 495 kts | 63° |
| 2026-04-25 21:47 | 48.48706 | -3.68341 | 40199 ft | 495 kts | 63° |
| 2026-04-25 21:48 | 48.51616 | -3.58942 | 40206 ft | 495 kts | 63° |
| 2026-04-25 21:48 | 48.54521 | -3.49529 | 40207 ft | 494 kts | 63° |
| 2026-04-25 21:49 | 48.57401 | -3.40111 | 40206 ft | 495 kts | 64° |
| 2026-04-25 21:49 | 48.58439 | -3.35147 | 40213 ft | 498 kts | 78° |
| 2026-04-25 21:49 | 48.58759 | -3.29930 | 40212 ft | 499 kts | 88° |
| 2026-04-25 21:50 | 48.58669 | -3.19435 | 40208 ft | 501 kts | 90° |
| 2026-04-25 21:50 | 48.58486 | -3.08889 | 40211 ft | 502 kts | 90° |
| 2026-04-25 21:51 | 48.58294 | -2.98356 | 40217 ft | 502 kts | 90° |
| 2026-04-25 21:51 | 48.58088 | -2.87840 | 40217 ft | 502 kts | 90° |
| 2026-04-25 21:52 | 48.57878 | -2.77281 | 40436 ft | 502 kts | 90° |
| 2026-04-25 21:52 | 48.57775 | -2.72020 | 40591 ft | 501 kts | 90° |
| 2026-04-25 21:52 | 48.57673 | -2.66745 | 40749 ft | 501 kts | 90° |
| 2026-04-25 21:52 | 48.57573 | -2.61499 | 40865 ft | 501 kts | 90° |
| 2026-04-25 21:53 | 48.57475 | -2.56243 | 41038 ft | 500 kts | 90° |
| 2026-04-25 21:53 | 48.57380 | -2.51002 | 41180 ft | 499 kts | 90° |
| 2026-04-25 21:53 | 48.57286 | -2.45762 | 41204 ft | 500 kts | 90° |
| 2026-04-25 21:54 | 48.57099 | -2.35284 | 41205 ft | 500 kts | 90° |
| 2026-04-25 21:54 | 48.57220 | -2.24820 | 41212 ft | 498 kts | 81° |
| 2026-04-25 21:55 | 48.58402 | -2.14550 | 41215 ft | 496 kts | 76° |
| 2026-04-25 21:55 | 48.59896 | -2.04372 | 41211 ft | 496 kts | 76° |
| 2026-04-25 21:56 | 48.61392 | -1.94215 | 41211 ft | 496 kts | 76° |
| 2026-04-25 21:56 | 48.62843 | -1.84018 | 41198 ft | 496 kts | 76° |
| 2026-04-25 21:57 | 48.64256 | -1.73868 | 41202 ft | 496 kts | 76° |
| 2026-04-25 21:57 | 48.65669 | -1.63661 | 41198 ft | 497 kts | 77° |
| 2026-04-25 21:58 | 48.67073 | -1.53410 | 41199 ft | 498 kts | 77° |
| 2026-04-25 21:58 | 48.68462 | -1.43156 | 41201 ft | 498 kts | 77° |
| 2026-04-25 21:59 | 48.69860 | -1.32830 | 41207 ft | 498 kts | 77° |
| 2026-04-25 21:59 | 48.71235 | -1.22546 | 41206 ft | 499 kts | 77° |
| 2026-04-25 22:00 | 48.73287 | -1.07074 | 41214 ft | 500 kts | 77° |
| 2026-04-25 22:00 | 48.74517 | -0.97731 | 41219 ft | 500 kts | 77° |
| 2026-04-25 22:01 | 48.75870 | -0.87382 | 41217 ft | 500 kts | 77° |
| 2026-04-25 22:01 | 48.76986 | -0.78790 | 41216 ft | 500 kts | 77° |
| 2026-04-25 22:02 | 48.78545 | -0.66693 | 41220 ft | 500 kts | 77° |
| 2026-04-25 22:02 | 48.79870 | -0.56335 | 41219 ft | 500 kts | 77° |
| 2026-04-25 22:03 | 48.81177 | -0.46031 | 41218 ft | 499 kts | 78° |
| 2026-04-25 22:03 | 48.81822 | -0.40913 | 41213 ft | 488 kts | 78° |
| 2026-04-25 22:03 | 48.82457 | -0.35848 | 41216 ft | 481 kts | 78° |
| 2026-04-25 22:04 | 48.83514 | -0.25948 | 41222 ft | 478 kts | 85° |
| 2026-04-25 22:04 | 48.83317 | -0.15856 | 41222 ft | 480 kts | 93° |
| 2026-04-25 22:05 | 48.82743 | -0.05765 | 41219 ft | 480 kts | 95° |
| 2026-04-25 22:05 | 48.82108 | 0.04350 | 41220 ft | 480 kts | 95° |
| 2026-04-25 22:06 | 48.81000 | 0.14320 | 41220 ft | 480 kts | 103° |
| 2026-04-25 22:06 | 48.79363 | 0.24126 | 41219 ft | 480 kts | 104° |
| 2026-04-25 22:07 | 48.77976 | 0.32267 | 41220 ft | 480 kts | 104° |
| 2026-04-25 22:07 | 48.76021 | 0.43707 | 41225 ft | 480 kts | 104° |
| 2026-04-25 22:08 | 48.74357 | 0.53482 | 41224 ft | 479 kts | 104° |
| 2026-04-25 22:08 | 48.72696 | 0.63245 | 41221 ft | 478 kts | 104° |
| 2026-04-25 22:09 | 48.71039 | 0.73002 | 41073 ft | 479 kts | 103° |
| 2026-04-25 22:09 | 48.70472 | 0.77956 | 40826 ft | 478 kts | 95° |
| 2026-04-25 22:09 | 48.70414 | 0.82978 | 40611 ft | 475 kts | 84° |
| 2026-04-25 22:10 | 48.72014 | 0.92611 | 40365 ft | 473 kts | 63° |
| 2026-04-25 22:10 | 48.73652 | 0.96909 | 40136 ft | 470 kts | 52° |
| 2026-04-25 22:10 | 48.75763 | 1.00634 | 39889 ft | 467 kts | 41° |
| 2026-04-25 22:11 | 48.78196 | 1.03892 | 39661 ft | 466 kts | 37° |
| 2026-04-25 22:11 | 48.80736 | 1.06934 | 39424 ft | 466 kts | 35° |
| 2026-04-25 22:11 | 48.83322 | 1.09901 | 39198 ft | 466 kts | 34° |
| 2026-04-25 22:11 | 48.85913 | 1.12860 | 38968 ft | 466 kts | 35° |
| 2026-04-25 22:12 | 48.88490 | 1.15839 | 38705 ft | 466 kts | 35° |
| 2026-04-25 22:12 | 48.91065 | 1.18862 | 38422 ft | 466 kts | 36° |
| 2026-04-25 22:12 | 48.93629 | 1.21879 | 38129 ft | 466 kts | 34° |
| 2026-04-25 22:12 | 48.94533 | 1.22827 | 38034 ft | 465 kts | 30° |
| 2026-04-25 22:13 | 48.99421 | 1.25946 | 37601 ft | 458 kts | 13° |
| 2026-04-25 22:13 | 49.02500 | 1.27173 | 37318 ft | 458 kts | 12° |
| 2026-04-25 22:13 | 49.05609 | 1.28348 | 37049 ft | 459 kts | 11° |
| 2026-04-25 22:13 | 49.08702 | 1.29509 | 36802 ft | 457 kts | 11° |
| 2026-04-25 22:14 | 49.11780 | 1.30664 | 36532 ft | 455 kts | 11° |
| 2026-04-25 22:14 | 49.14860 | 1.31821 | 36270 ft | 454 kts | 11° |
| 2026-04-25 22:14 | 49.17930 | 1.32976 | 36029 ft | 454 kts | 11° |
| 2026-04-25 22:14 | 49.20987 | 1.34153 | 35775 ft | 455 kts | 12° |
| 2026-04-25 22:15 | 49.23991 | 1.35735 | 35532 ft | 458 kts | 21° |
| 2026-04-25 22:15 | 49.26820 | 1.38023 | 35282 ft | 462 kts | 31° |
| 2026-04-25 22:15 | 49.29365 | 1.41049 | 35040 ft | 465 kts | 41° |
| 2026-04-25 22:16 | 49.33441 | 1.48793 | 34566 ft | 470 kts | 54° |
| 2026-04-25 22:16 | 49.35218 | 1.53022 | 34330 ft | 472 kts | 56° |
| 2026-04-25 22:16 | 49.36944 | 1.57307 | 34224 ft | 473 kts | 56° |
| 2026-04-25 22:17 | 49.40410 | 1.65887 | 34225 ft | 473 kts | 56° |
| 2026-04-25 22:17 | 49.43915 | 1.74339 | 34232 ft | 472 kts | 55° |
| 2026-04-25 22:18 | 49.47473 | 1.82817 | 34224 ft | 472 kts | 55° |
| 2026-04-25 22:18 | 49.51102 | 1.91212 | 34223 ft | 470 kts | 50° |
| 2026-04-25 22:19 | 49.55561 | 1.98509 | 34214 ft | 469 kts | 42° |
| 2026-04-25 22:19 | 49.59454 | 2.04328 | 34213 ft | 469 kts | 41° |
| 2026-04-25 22:20 | 49.64173 | 2.11292 | 34214 ft | 469 kts | 41° |
| 2026-04-25 22:20 | 49.69637 | 2.19401 | 34146 ft | 469 kts | 41° |
| 2026-04-25 22:20 | 49.71230 | 2.21778 | 33993 ft | 469 kts | 41° |
| 2026-04-25 22:21 | 49.73570 | 2.25278 | 33728 ft | 469 kts | 41° |
| 2026-04-25 22:21 | 49.75882 | 2.28743 | 33459 ft | 469 kts | 41° |
| 2026-04-25 22:21 | 49.78223 | 2.32256 | 33207 ft | 469 kts | 41° |
| 2026-04-25 22:21 | 49.80564 | 2.35775 | 32933 ft | 469 kts | 41° |
| 2026-04-25 22:22 | 49.82900 | 2.39291 | 32676 ft | 470 kts | 41° |
| 2026-04-25 22:22 | 49.85248 | 2.42829 | 32415 ft | 470 kts | 41° |
| 2026-04-25 22:22 | 49.87601 | 2.46379 | 32168 ft | 475 kts | 41° |
| 2026-04-25 22:22 | 49.89982 | 2.49973 | 31905 ft | 478 kts | 41° |
| 2026-04-25 22:23 | 49.92357 | 2.53567 | 31652 ft | 477 kts | 42° |
| 2026-04-25 22:23 | 49.94732 | 2.57167 | 31421 ft | 476 kts | 42° |
| 2026-04-25 22:23 | 49.97102 | 2.60760 | 31183 ft | 476 kts | 41° |
| 2026-04-25 22:23 | 49.99473 | 2.64359 | 30929 ft | 477 kts | 42° |
| 2026-04-25 22:24 | 50.01806 | 2.67912 | 30684 ft | 478 kts | 42° |
| 2026-04-25 22:24 | 50.04184 | 2.71542 | 30443 ft | 478 kts | 42° |
| 2026-04-25 22:24 | 50.06555 | 2.75168 | 30182 ft | 478 kts | 42° |
| 2026-04-25 22:24 | 50.08928 | 2.78800 | 29889 ft | 477 kts | 42° |
| 2026-04-25 22:25 | 50.11283 | 2.82411 | 29613 ft | 475 kts | 42° |
| 2026-04-25 22:25 | 50.13646 | 2.86035 | 29333 ft | 479 kts | 42° |
| 2026-04-25 22:25 | 50.16028 | 2.89693 | 29073 ft | 480 kts | 42° |
| 2026-04-25 22:25 | 50.18407 | 2.93352 | 28795 ft | 479 kts | 42° |
| 2026-04-25 22:26 | 50.20766 | 2.96988 | 28534 ft | 477 kts | 42° |
| 2026-04-25 22:26 | 50.23119 | 3.00620 | 28254 ft | 475 kts | 42° |
| 2026-04-25 22:26 | 50.25457 | 3.04234 | 27979 ft | 473 kts | 42° |
| 2026-04-25 22:26 | 50.27771 | 3.07815 | 27256 ft | 475 kts | 42° |
| 2026-04-25 22:27 | 50.30114 | 3.11446 | 26715 ft | 471 kts | 42° |
| 2026-04-25 22:27 | 50.32410 | 3.15013 | 26441 ft | 459 kts | 42° |
| 2026-04-25 22:27 | 50.34665 | 3.18521 | 26182 ft | 457 kts | 42° |
| 2026-04-25 22:27 | 50.36930 | 3.22046 | 25945 ft | 458 kts | 42° |
| 2026-04-25 22:28 | 50.39182 | 3.25552 | 25721 ft | 458 kts | 43° |
| 2026-04-25 22:28 | 50.41446 | 3.29083 | 25469 ft | 458 kts | 43° |
| 2026-04-25 22:28 | 50.43693 | 3.32594 | 25016 ft | 455 kts | 43° |
| 2026-04-25 22:28 | 50.45935 | 3.36100 | 24335 ft | 455 kts | 43° |
| 2026-04-25 22:29 | 50.48180 | 3.39617 | 23679 ft | 452 kts | 43° |
| 2026-04-25 22:29 | 50.50379 | 3.43068 | 22842 ft | 446 kts | 43° |
| 2026-04-25 22:29 | 50.52561 | 3.46496 | 22352 ft | 439 kts | 43° |
| 2026-04-25 22:30 | 50.57177 | 3.52561 | 22240 ft | 433 kts | 33° |
| 2026-04-25 22:30 | 50.59616 | 3.55226 | 22254 ft | 433 kts | 33° |
| 2026-04-25 22:30 | 50.62067 | 3.57905 | 21806 ft | 426 kts | 33° |
| 2026-04-25 22:30 | 50.63709 | 3.59706 | 21250 ft | 427 kts | 33° |
| 2026-04-25 22:31 | 50.66923 | 3.63239 | 20485 ft | 422 kts | 33° |
| 2026-04-25 22:31 | 50.69316 | 3.65876 | 19944 ft | 417 kts | 33° |
| 2026-04-25 22:31 | 50.71682 | 3.68488 | 19383 ft | 413 kts | 33° |
| 2026-04-25 22:31 | 50.74024 | 3.71077 | 18839 ft | 409 kts | 33° |
| 2026-04-25 22:32 | 50.76341 | 3.73637 | 18283 ft | 405 kts | 33° |
| 2026-04-25 22:32 | 50.78604 | 3.76153 | 17658 ft | 401 kts | 33° |
| 2026-04-25 22:32 | 50.80874 | 3.78686 | 17046 ft | 398 kts | 33° |
| 2026-04-25 22:32 | 50.83123 | 3.81197 | 16475 ft | 393 kts | 34° |
| 2026-04-25 22:33 | 50.85337 | 3.83671 | 15900 ft | 389 kts | 34° |
| 2026-04-25 22:33 | 50.87444 | 3.86336 | 15286 ft | 387 kts | 44° |
| 2026-04-25 22:33 | 50.89058 | 3.89738 | 14751 ft | 385 kts | 56° |
| 2026-04-25 22:33 | 50.90426 | 3.93307 | 14469 ft | 374 kts | 57° |
| 2026-04-25 22:34 | 50.91601 | 3.96881 | 14133 ft | 356 kts | 64° |
| 2026-04-25 22:34 | 50.92499 | 4.00411 | 13678 ft | 336 kts | 67° |
| 2026-04-25 22:34 | 50.93306 | 4.03799 | 13214 ft | 323 kts | 67° |
| 2026-04-25 22:34 | 50.93919 | 4.06391 | 12976 ft | 317 kts | 67° |
| 2026-04-25 22:35 | 50.94687 | 4.09645 | 12618 ft | 312 kts | 67° |
| 2026-04-25 22:35 | 50.95433 | 4.12805 | 12254 ft | 308 kts | 67° |
| 2026-04-25 22:35 | 50.96177 | 4.15958 | 11875 ft | 304 kts | 67° |
| 2026-04-25 22:35 | 50.96909 | 4.19063 | 11247 ft | 298 kts | 67° |
| 2026-04-25 22:36 | 50.97635 | 4.22128 | 10503 ft | 296 kts | 67° |
| 2026-04-25 22:36 | 50.98363 | 4.25191 | 9975 ft | 297 kts | 67° |
| 2026-04-25 22:36 | 50.99087 | 4.28234 | 9591 ft | 293 kts | 67° |
| 2026-04-25 22:36 | 50.99802 | 4.31242 | 9192 ft | 289 kts | 67° |
| 2026-04-25 22:37 | 51.00507 | 4.34216 | 8878 ft | 286 kts | 67° |
| 2026-04-25 22:37 | 51.01202 | 4.37156 | 8611 ft | 285 kts | 67° |
| 2026-04-25 22:37 | 51.01897 | 4.40097 | 8359 ft | 284 kts | 67° |
| 2026-04-25 22:37 | 51.02585 | 4.43014 | 8249 ft | 282 kts | 67° |
| 2026-04-25 22:38 | 51.03273 | 4.45935 | 8235 ft | 282 kts | 67° |
| 2026-04-25 22:38 | 51.03960 | 4.48851 | 8238 ft | 282 kts | 67° |
| 2026-04-25 22:38 | 51.04638 | 4.51730 | 8238 ft | 282 kts | 67° |
| 2026-04-25 22:38 | 51.05311 | 4.54597 | 8235 ft | 271 kts | 67° |
| 2026-04-25 22:39 | 51.05953 | 4.57345 | 8088 ft | 260 kts | 67° |
| 2026-04-25 22:39 | 51.06571 | 4.60004 | 7853 ft | 253 kts | 67° |
| 2026-04-25 22:39 | 51.07176 | 4.62612 | 7571 ft | 249 kts | 67° |
| 2026-04-25 22:39 | 51.07769 | 4.65183 | 7263 ft | 246 kts | 67° |
| 2026-04-25 22:40 | 51.08221 | 4.67795 | 6942 ft | 247 kts | 83° |
| 2026-04-25 22:40 | 51.07970 | 4.70485 | 6620 ft | 248 kts | 107° |
| 2026-04-25 22:40 | 51.07323 | 4.73010 | 6237 ft | 245 kts | 111° |
| 2026-04-25 22:40 | 51.06623 | 4.75465 | 5711 ft | 242 kts | 112° |
| 2026-04-25 22:41 | 51.05925 | 4.77884 | 5395 ft | 239 kts | 112° |
| 2026-04-25 22:41 | 51.05233 | 4.80275 | 5086 ft | 238 kts | 112° |
| 2026-04-25 22:41 | 51.04551 | 4.82628 | 4755 ft | 236 kts | 112° |
| 2026-04-25 22:41 | 51.03787 | 4.84921 | 4572 ft | 230 kts | 123° |
| 2026-04-25 22:42 | 51.02576 | 4.86446 | 4365 ft | 227 kts | 156° |
| 2026-04-25 22:42 | 51.01042 | 4.86708 | 4170 ft | 220 kts | 191° |
| 2026-04-25 22:42 | 50.99715 | 4.85708 | 4051 ft | 207 kts | 217° |
| 2026-04-25 22:42 | 50.98623 | 4.84294 | 3931 ft | 200 kts | 222° |
| 2026-04-25 22:43 | 50.97576 | 4.82835 | 3805 ft | 200 kts | 222° |
| 2026-04-25 22:43 | 50.96683 | 4.81162 | 3674 ft | 199 kts | 241° |
| 2026-04-25 22:43 | 50.96121 | 4.79185 | 3566 ft | 197 kts | 252° |
| 2026-04-25 22:43 | 50.95647 | 4.77139 | 3436 ft | 197 kts | 250° |
| 2026-04-25 22:44 | 50.95141 | 4.75114 | 3204 ft | 197 kts | 251° |
| 2026-04-25 22:44 | 50.94678 | 4.73093 | 2940 ft | 195 kts | 252° |
| 2026-04-25 22:44 | 50.94223 | 4.71105 | 2690 ft | 193 kts | 252° |
| 2026-04-25 22:44 | 50.93765 | 4.69127 | 2418 ft | 190 kts | 252° |
| 2026-04-25 22:45 | 50.93314 | 4.67172 | 2166 ft | 187 kts | 252° |
| 2026-04-25 22:45 | 50.92879 | 4.65284 | 1908 ft | 178 kts | 252° |
| 2026-04-25 22:45 | 50.92465 | 4.63493 | 1659 ft | 168 kts | 252° |
| 2026-04-25 22:45 | 50.92078 | 4.61805 | 1445 ft | 157 kts | 253° |
| 2026-04-25 22:46 | 50.91717 | 4.60227 | 1229 ft | 149 kts | 253° |
| 2026-04-25 22:46 | 50.91369 | 4.58690 | 1050 ft | 148 kts | 253° |
| 2026-04-25 22:46 | 50.91030 | 4.57155 | 840 ft | 147 kts | 252° |
| 2026-04-25 22:46 | 50.90688 | 4.55659 | 647 ft | 142 kts | 251° |
| 2026-04-25 22:47 | 50.90336 | 4.54247 | 457 ft | 137 kts | 250° |
| 2026-04-25 22:47 | 50.90011 | 4.52851 | 288 ft | 134 kts | 251° |
| 2026-04-25 22:47 | 50.89694 | 4.51484 | 180 ft | 127 kts | 250° |
| 2026-04-25 22:47 | 50.89462 | 4.50448 | 182 ft | 71 kts | 249° |
| 2026-04-25 22:48 | 50.89354 | 4.49990 | 183 ft | 26 kts | 250° |
| 2026-04-25 22:48 | 50.89340 | 4.49753 | 183 ft | 22 kts | 285° |
| 2026-04-25 22:48 | 50.89433 | 4.49539 | 173 ft | 22 kts | 307° |
| 2026-04-25 22:48 | 50.89492 | 4.49415 | 170 ft | 9 kts | 307° |
| 2026-04-25 22:49 | 50.89500 | 4.49399 | 170 ft | 1 kts | 307° |
| 2026-04-25 22:49 | 50.89507 | 4.49382 | 170 ft | 4 kts | 307° |
| 2026-04-25 22:49 | 50.89546 | 4.49303 | 166 ft | 14 kts | 307° |
| 2026-04-25 22:49 | 50.89613 | 4.49169 | 160 ft | 11 kts | 316° |
| 2026-04-25 22:50 | 50.89691 | 4.49162 | 155 ft | 15 kts | 15° |
| 2026-04-25 22:50 | 50.89782 | 4.49200 | 151 ft | 9 kts | 14° |
| 2026-04-25 22:50 | 50.89854 | 4.49230 | 146 ft | 9 kts | 14° |
| 2026-04-25 22:50 | 50.89878 | 4.49240 | 145 ft | 6 kts | 14° |
| 2026-04-25 22:51 | 50.89895 | 4.49247 | 144 ft | 5 kts | 14° |
| 2026-04-25 22:51 | 50.89953 | 4.49271 | 141 ft | 12 kts | 14° |
| 2026-04-25 22:51 | 50.90057 | 4.49314 | 137 ft | 18 kts | 14° |
| 2026-04-25 22:51 | 50.90189 | 4.49367 | 135 ft | 22 kts | 14° |
| 2026-04-25 22:52 | 50.90281 | 4.49405 | 130 ft | 9 kts | 14° |
| 2026-04-25 22:52 | 50.90327 | 4.49357 | 127 ft | 8 kts | 276° |
| 2026-04-25 22:52 | 50.90311 | 4.49266 | 128 ft | 10 kts | 248° |
| 2026-04-25 22:52 | 50.90290 | 4.49196 | 128 ft | 11 kts | 244° |
| 2026-04-25 22:53 | 50.90248 | 4.49053 | 126 ft | 1 kts | 244° |
| 2026-04-25 22:53 | 50.90245 | 4.49042 | 128 ft | 2 kts | 244° |
| 2026-04-25 22:53 | 50.90234 | 4.49026 | 126 ft | 3 kts | 216° |
| 2026-04-25 22:53 | 50.90226 | 4.49025 | 130 ft | 1 kts | 187° |
| 2026-04-25 22:54 | 50.90195 | 4.49038 | 133 ft | 6 kts | 162° |
| 2026-04-25 22:54 | 50.90180 | 4.49049 | 135 ft | 1 kts | 155° |
| 2026-04-25 22:54 | 50.90175 | 4.49053 | 137 ft | 1 kts | 155° |
| 2026-04-25 22:54 | 50.90174 | 4.49053 | 137 ft | 0 kts | 155° |